<?xml version="1.0" encoding="UTF-8" standalone="no" ?><gpx xmlns="http://www.topografix.com/GPX/1/1" xmlns:gpxx="http://www.garmin.com/xmlschemas/GpxExtensions/v3" xmlns:wptx1="http://www.garmin.com/xmlschemas/WaypointExtension/v1" xmlns:gpxtpx="http://www.garmin.com/xmlschemas/TrackPointExtension/v1" creator="eTrex 30" version="1.1" xmlns:xsi="http://www.w3.org/2001/XMLSchema-instance" xsi:schemaLocation="http://www.topografix.com/GPX/1/1 http://www.topografix.com/GPX/1/1/gpx.xsd http://www.garmin.com/xmlschemas/GpxExtensions/v3 http://www8.garmin.com/xmlschemas/GpxExtensionsv3.xsd http://www.garmin.com/xmlschemas/WaypointExtension/v1 http://www8.garmin.com/xmlschemas/WaypointExtensionv1.xsd http://www.garmin.com/xmlschemas/TrackPointExtension/v1 http://www.garmin.com/xmlschemas/TrackPointExtensionv1.xsd"><metadata><link href="http://www.garmin.com"><text>Garmin International</text></link><time>2015-09-27T13:43:31Z</time></metadata><trk><name>2015-09-27 15:43:25</name><extensions><gpxx:TrackExtension><gpxx:DisplayColor>Blue</gpxx:DisplayColor></gpxx:TrackExtension></extensions><trkseg><trkpt lat="44.0798796806" lon="4.3727693148"><ele>172.69</ele><time>2015-09-27T07:57:43Z</time></trkpt><trkpt lat="44.0798800159" lon="4.3727699015"><ele>172.69</ele><time>2015-09-27T07:57:44Z</time></trkpt><trkpt lat="44.0798797645" lon="4.3727704883"><ele>172.69</ele><time>2015-09-27T07:57:45Z</time></trkpt><trkpt lat="44.0798944328" lon="4.3727916107"><ele>172.69</ele><time>2015-09-27T07:58:11Z</time></trkpt><trkpt lat="44.0799449757" lon="4.3728786148"><ele>172.69</ele><time>2015-09-27T07:58:28Z</time></trkpt><trkpt lat="44.0800033975" lon="4.3729706481"><ele>172.69</ele><time>2015-09-27T07:58:44Z</time></trkpt><trkpt lat="44.0800411999" lon="4.3730315007"><ele>174.14</ele><time>2015-09-27T07:58:52Z</time></trkpt><trkpt lat="44.0801730473" lon="4.3730798643"><ele>175.58</ele><time>2015-09-27T07:59:11Z</time></trkpt><trkpt lat="44.0801541880" lon="4.3728709873"><ele>176.54</ele><time>2015-09-27T07:59:28Z</time></trkpt><trkpt lat="44.0801396873" lon="4.3727766909"><ele>177.50</ele><time>2015-09-27T07:59:37Z</time></trkpt><trkpt lat="44.0801024716" lon="4.3725185283"><ele>178.46</ele><time>2015-09-27T07:59:56Z</time></trkpt><trkpt lat="44.0800626576" lon="4.3723634630"><ele>178.46</ele><time>2015-09-27T08:00:10Z</time></trkpt><trkpt lat="44.0800257772" lon="4.3723102380"><ele>178.46</ele><time>2015-09-27T08:00:28Z</time></trkpt><trkpt lat="44.0799738094" lon="4.3722179532"><ele>178.46</ele><time>2015-09-27T08:00:50Z</time></trkpt><trkpt lat="44.0798869729" lon="4.3720428552"><ele>177.02</ele><time>2015-09-27T08:01:02Z</time></trkpt><trkpt lat="44.0798750706" lon="4.3717030529"><ele>175.58</ele><time>2015-09-27T08:01:23Z</time></trkpt><trkpt lat="44.0798377711" lon="4.3715966027"><ele>174.62</ele><time>2015-09-27T08:01:39Z</time></trkpt><trkpt lat="44.0797692910" lon="4.3716437090"><ele>174.62</ele><time>2015-09-27T08:01:57Z</time></trkpt><trkpt lat="44.0797583107" lon="4.3717171345"><ele>174.14</ele><time>2015-09-27T08:02:14Z</time></trkpt><trkpt lat="44.0797327459" lon="4.3716652505"><ele>173.66</ele><time>2015-09-27T08:02:35Z</time></trkpt><trkpt lat="44.0797205921" lon="4.3716158811"><ele>173.66</ele><time>2015-09-27T08:02:51Z</time></trkpt><trkpt lat="44.0796799399" lon="4.3715989497"><ele>173.66</ele><time>2015-09-27T08:03:00Z</time></trkpt><trkpt lat="44.0796483401" lon="4.3716510851"><ele>173.17</ele><time>2015-09-27T08:03:07Z</time></trkpt><trkpt lat="44.0796318278" lon="4.3718321342"><ele>171.73</ele><time>2015-09-27T08:03:24Z</time></trkpt><trkpt lat="44.0796304867" lon="4.3719175458"><ele>171.25</ele><time>2015-09-27T08:03:37Z</time></trkpt><trkpt lat="44.0795822069" lon="4.3720139377"><ele>171.25</ele><time>2015-09-27T08:03:52Z</time></trkpt><trkpt lat="44.0794926882" lon="4.3721222319"><ele>170.77</ele><time>2015-09-27T08:04:07Z</time></trkpt><trkpt lat="44.0794568136" lon="4.3721391633"><ele>170.77</ele><time>2015-09-27T08:04:11Z</time></trkpt><trkpt lat="44.0792400576" lon="4.3721694220"><ele>170.77</ele><time>2015-09-27T08:04:31Z</time></trkpt><trkpt lat="44.0790321864" lon="4.3721387442"><ele>170.77</ele><time>2015-09-27T08:04:50Z</time></trkpt><trkpt lat="44.0788513049" lon="4.3720933143"><ele>171.73</ele><time>2015-09-27T08:05:07Z</time></trkpt><trkpt lat="44.0787383169" lon="4.3720646482"><ele>171.73</ele><time>2015-09-27T08:05:21Z</time></trkpt><trkpt lat="44.0785591118" lon="4.3721340504"><ele>170.77</ele><time>2015-09-27T08:05:39Z</time></trkpt><trkpt lat="44.0783821698" lon="4.3722262513"><ele>170.77</ele><time>2015-09-27T08:05:58Z</time></trkpt><trkpt lat="44.0782075748" lon="4.3723092321"><ele>170.77</ele><time>2015-09-27T08:06:16Z</time></trkpt><trkpt lat="44.0780395176" lon="4.3723949790"><ele>170.29</ele><time>2015-09-27T08:06:33Z</time></trkpt><trkpt lat="44.0779998712" lon="4.3724276684"><ele>171.73</ele><time>2015-09-27T08:06:37Z</time></trkpt><trkpt lat="44.0778698679" lon="4.3725745194"><ele>173.17</ele><time>2015-09-27T08:06:53Z</time></trkpt><trkpt lat="44.0777643397" lon="4.3727088813"><ele>174.14</ele><time>2015-09-27T08:07:07Z</time></trkpt><trkpt lat="44.0777232684" lon="4.3727353681"><ele>174.14</ele><time>2015-09-27T08:07:11Z</time></trkpt><trkpt lat="44.0775272995" lon="4.3728129007"><ele>174.62</ele><time>2015-09-27T08:07:30Z</time></trkpt><trkpt lat="44.0773358569" lon="4.3728973065"><ele>175.58</ele><time>2015-09-27T08:07:49Z</time></trkpt><trkpt lat="44.0771634411" lon="4.3729416467"><ele>176.54</ele><time>2015-09-27T08:08:05Z</time></trkpt><trkpt lat="44.0771071985" lon="4.3729447480"><ele>177.02</ele><time>2015-09-27T08:08:11Z</time></trkpt><trkpt lat="44.0769900195" lon="4.3729698099"><ele>177.98</ele><time>2015-09-27T08:08:24Z</time></trkpt><trkpt lat="44.0768850781" lon="4.3729597516"><ele>178.94</ele><time>2015-09-27T08:08:35Z</time></trkpt><trkpt lat="44.0768000018" lon="4.3729856517"><ele>179.42</ele><time>2015-09-27T08:08:43Z</time></trkpt><trkpt lat="44.0766459424" lon="4.3730453309"><ele>180.87</ele><time>2015-09-27T08:08:59Z</time></trkpt><trkpt lat="44.0765119158" lon="4.3730891682"><ele>182.31</ele><time>2015-09-27T08:09:13Z</time></trkpt><trkpt lat="44.0763764642" lon="4.3730917666"><ele>184.23</ele><time>2015-09-27T08:09:27Z</time></trkpt><trkpt lat="44.0761837643" lon="4.3731137272"><ele>184.71</ele><time>2015-09-27T08:09:46Z</time></trkpt><trkpt lat="44.0761334728" lon="4.3731211033"><ele>184.23</ele><time>2015-09-27T08:09:51Z</time></trkpt><trkpt lat="44.0759537648" lon="4.3731092010"><ele>184.23</ele><time>2015-09-27T08:10:06Z</time></trkpt><trkpt lat="44.0759411082" lon="4.3731079437"><ele>184.23</ele><time>2015-09-27T08:10:07Z</time></trkpt><trkpt lat="44.0757930838" lon="4.3731390405"><ele>184.23</ele><time>2015-09-27T08:10:21Z</time></trkpt><trkpt lat="44.0755933430" lon="4.3731598277"><ele>184.23</ele><time>2015-09-27T08:10:33Z</time></trkpt><trkpt lat="44.0755683649" lon="4.3731749989"><ele>184.23</ele><time>2015-09-27T08:10:42Z</time></trkpt><trkpt lat="44.0755659342" lon="4.3731649406"><ele>184.23</ele><time>2015-09-27T08:10:45Z</time></trkpt><trkpt lat="44.0755585581" lon="4.3731545471"><ele>184.23</ele><time>2015-09-27T08:10:46Z</time></trkpt><trkpt lat="44.0754954424" lon="4.3731002323"><ele>184.23</ele><time>2015-09-27T08:10:54Z</time></trkpt><trkpt lat="44.0754845459" lon="4.3730909284"><ele>184.23</ele><time>2015-09-27T08:10:55Z</time></trkpt><trkpt lat="44.0754730627" lon="4.3730833009"><ele>184.23</ele><time>2015-09-27T08:10:56Z</time></trkpt><trkpt lat="44.0752941929" lon="4.3729902618"><ele>184.71</ele><time>2015-09-27T08:11:13Z</time></trkpt><trkpt lat="44.0751690511" lon="4.3729372881"><ele>185.67</ele><time>2015-09-27T08:11:26Z</time></trkpt><trkpt lat="44.0749727469" lon="4.3728504516"><ele>186.15</ele><time>2015-09-27T08:11:45Z</time></trkpt><trkpt lat="44.0747254808" lon="4.3727149162"><ele>187.11</ele><time>2015-09-27T08:12:03Z</time></trkpt><trkpt lat="44.0746471938" lon="4.3726642895"><ele>187.11</ele><time>2015-09-27T08:12:19Z</time></trkpt><trkpt lat="44.0744492970" lon="4.3725997489"><ele>188.56</ele><time>2015-09-27T08:12:38Z</time></trkpt><trkpt lat="44.0742529090" lon="4.3725287542"><ele>189.04</ele><time>2015-09-27T08:12:57Z</time></trkpt><trkpt lat="44.0741927270" lon="4.3725081347"><ele>189.04</ele><time>2015-09-27T08:13:04Z</time></trkpt><trkpt lat="44.0741563495" lon="4.3725023512"><ele>189.52</ele><time>2015-09-27T08:13:08Z</time></trkpt><trkpt lat="44.0740034636" lon="4.3724997528"><ele>190.00</ele><time>2015-09-27T08:13:24Z</time></trkpt><trkpt lat="44.0738743823" lon="4.3724807259"><ele>191.44</ele><time>2015-09-27T08:13:39Z</time></trkpt><trkpt lat="44.0737478156" lon="4.3724523112"><ele>192.40</ele><time>2015-09-27T08:13:55Z</time></trkpt><trkpt lat="44.0736194048" lon="4.3724275008"><ele>194.32</ele><time>2015-09-27T08:14:11Z</time></trkpt><trkpt lat="44.0735171456" lon="4.3723951466"><ele>196.25</ele><time>2015-09-27T08:14:26Z</time></trkpt><trkpt lat="44.0733938478" lon="4.3723660614"><ele>198.17</ele><time>2015-09-27T08:14:41Z</time></trkpt><trkpt lat="44.0732854698" lon="4.3723224755"><ele>200.09</ele><time>2015-09-27T08:14:56Z</time></trkpt><trkpt lat="44.0732013155" lon="4.3723072205"><ele>201.53</ele><time>2015-09-27T08:15:12Z</time></trkpt><trkpt lat="44.0731394570" lon="4.3723635469"><ele>202.49</ele><time>2015-09-27T08:15:26Z</time></trkpt><trkpt lat="44.0730883274" lon="4.3724728469"><ele>203.94</ele><time>2015-09-27T08:15:41Z</time></trkpt><trkpt lat="44.0730768442" lon="4.3726238050"><ele>205.86</ele><time>2015-09-27T08:15:56Z</time></trkpt><trkpt lat="44.0730423946" lon="4.3727414031"><ele>207.78</ele><time>2015-09-27T08:16:09Z</time></trkpt><trkpt lat="44.0730581526" lon="4.3729092926"><ele>208.74</ele><time>2015-09-27T08:16:23Z</time></trkpt><trkpt lat="44.0730656125" lon="4.3730961252"><ele>209.70</ele><time>2015-09-27T08:16:39Z</time></trkpt><trkpt lat="44.0730130579" lon="4.3732868135"><ele>211.15</ele><time>2015-09-27T08:16:57Z</time></trkpt><trkpt lat="44.0729334299" lon="4.3734469917"><ele>213.55</ele><time>2015-09-27T08:17:16Z</time></trkpt><trkpt lat="44.0728916042" lon="4.3735900708"><ele>215.47</ele><time>2015-09-27T08:17:32Z</time></trkpt><trkpt lat="44.0728617646" lon="4.3737927452"><ele>217.40</ele><time>2015-09-27T08:17:48Z</time></trkpt><trkpt lat="44.0728670452" lon="4.3739042245"><ele>218.84</ele><time>2015-09-27T08:17:59Z</time></trkpt><trkpt lat="44.0728585795" lon="4.3739978503"><ele>220.28</ele><time>2015-09-27T08:18:06Z</time></trkpt><trkpt lat="44.0728347749" lon="4.3741906341"><ele>223.16</ele><time>2015-09-27T08:18:23Z</time></trkpt><trkpt lat="44.0728242975" lon="4.3742488045"><ele>223.64</ele><time>2015-09-27T08:18:39Z</time></trkpt><trkpt lat="44.0728209447" lon="4.3743967451"><ele>224.61</ele><time>2015-09-27T08:18:53Z</time></trkpt><trkpt lat="44.0728301648" lon="4.3745788001"><ele>226.53</ele><time>2015-09-27T08:19:09Z</time></trkpt><trkpt lat="44.0728403907" lon="4.3745943066"><ele>226.53</ele><time>2015-09-27T08:19:23Z</time></trkpt><trkpt lat="44.0728199389" lon="4.3747135811"><ele>227.01</ele><time>2015-09-27T08:19:47Z</time></trkpt><trkpt lat="44.0728159156" lon="4.3748991564"><ele>228.93</ele><time>2015-09-27T08:20:05Z</time></trkpt><trkpt lat="44.0728159994" lon="4.3750782777"><ele>230.37</ele><time>2015-09-27T08:20:23Z</time></trkpt><trkpt lat="44.0728439949" lon="4.3752664514"><ele>232.78</ele><time>2015-09-27T08:20:42Z</time></trkpt><trkpt lat="44.0728615131" lon="4.3754226062"><ele>235.18</ele><time>2015-09-27T08:20:57Z</time></trkpt><trkpt lat="44.0728818811" lon="4.3755713850"><ele>237.10</ele><time>2015-09-27T08:21:11Z</time></trkpt><trkpt lat="44.0728676319" lon="4.3757106923"><ele>238.06</ele><time>2015-09-27T08:21:27Z</time></trkpt><trkpt lat="44.0727519616" lon="4.3756991252"><ele>239.99</ele><time>2015-09-27T08:21:43Z</time></trkpt><trkpt lat="44.0726351179" lon="4.3756632507"><ele>240.95</ele><time>2015-09-27T08:21:58Z</time></trkpt><trkpt lat="44.0725149214" lon="4.3757221755"><ele>240.95</ele><time>2015-09-27T08:22:16Z</time></trkpt><trkpt lat="44.0724202897" lon="4.3758674338"><ele>242.39</ele><time>2015-09-27T08:22:34Z</time></trkpt><trkpt lat="44.0724135842" lon="4.3759468105"><ele>242.39</ele><time>2015-09-27T08:22:41Z</time></trkpt><trkpt lat="44.0724117402" lon="4.3760836031"><ele>243.35</ele><time>2015-09-27T08:22:54Z</time></trkpt><trkpt lat="44.0724109858" lon="4.3760937452"><ele>243.35</ele><time>2015-09-27T08:22:55Z</time></trkpt><trkpt lat="44.0723963175" lon="4.3762561865"><ele>244.79</ele><time>2015-09-27T08:23:10Z</time></trkpt><trkpt lat="44.0724118240" lon="4.3763163686"><ele>245.27</ele><time>2015-09-27T08:23:19Z</time></trkpt><trkpt lat="44.0724131651" lon="4.3765018601"><ele>246.72</ele><time>2015-09-27T08:23:35Z</time></trkpt><trkpt lat="44.0724040288" lon="4.3766531534"><ele>248.16</ele><time>2015-09-27T08:23:48Z</time></trkpt><trkpt lat="44.0724125784" lon="4.3768153433"><ele>249.60</ele><time>2015-09-27T08:24:04Z</time></trkpt><trkpt lat="44.0724265762" lon="4.3769657146"><ele>251.04</ele><time>2015-09-27T08:24:20Z</time></trkpt><trkpt lat="44.0724367183" lon="4.3771305867"><ele>252.96</ele><time>2015-09-27T08:24:37Z</time></trkpt><trkpt lat="44.0724487882" lon="4.3772465084"><ele>253.93</ele><time>2015-09-27T08:24:50Z</time></trkpt><trkpt lat="44.0724793822" lon="4.3774017412"><ele>255.85</ele><time>2015-09-27T08:25:07Z</time></trkpt><trkpt lat="44.0725063719" lon="4.3775452394"><ele>257.77</ele><time>2015-09-27T08:25:24Z</time></trkpt><trkpt lat="44.0725346189" lon="4.3777355924"><ele>259.21</ele><time>2015-09-27T08:25:42Z</time></trkpt><trkpt lat="44.0725245606" lon="4.3778754864"><ele>260.17</ele><time>2015-09-27T08:25:57Z</time></trkpt><trkpt lat="44.0725129936" lon="4.3780313060"><ele>262.10</ele><time>2015-09-27T08:26:16Z</time></trkpt><trkpt lat="44.0724891052" lon="4.3781595491"><ele>263.06</ele><time>2015-09-27T08:26:30Z</time></trkpt><trkpt lat="44.0724553261" lon="4.3783352338"><ele>264.02</ele><time>2015-09-27T08:26:47Z</time></trkpt><trkpt lat="44.0724377241" lon="4.3783801608"><ele>264.02</ele><time>2015-09-27T08:26:58Z</time></trkpt><trkpt lat="44.0724300127" lon="4.3783775624"><ele>264.50</ele><time>2015-09-27T08:27:23Z</time></trkpt><trkpt lat="44.0724271629" lon="4.3783740420"><ele>264.50</ele><time>2015-09-27T08:27:46Z</time></trkpt><trkpt lat="44.0724323597" lon="4.3783904705"><ele>264.98</ele><time>2015-09-27T08:28:18Z</time></trkpt><trkpt lat="44.0724295098" lon="4.3783975951"><ele>264.98</ele><time>2015-09-27T08:28:48Z</time></trkpt><trkpt lat="44.0724288393" lon="4.3783910573"><ele>264.98</ele><time>2015-09-27T08:29:12Z</time></trkpt><trkpt lat="44.0724315215" lon="4.3783781491"><ele>264.98</ele><time>2015-09-27T08:29:40Z</time></trkpt><trkpt lat="44.0724328626" lon="4.3783860281"><ele>264.98</ele><time>2015-09-27T08:30:06Z</time></trkpt><trkpt lat="44.0724388137" lon="4.3783936556"><ele>265.46</ele><time>2015-09-27T08:30:29Z</time></trkpt><trkpt lat="44.0724347904" lon="4.3783890456"><ele>265.46</ele><time>2015-09-27T08:30:48Z</time></trkpt><trkpt lat="44.0724347904" lon="4.3783815019"><ele>265.46</ele><time>2015-09-27T08:31:14Z</time></trkpt><trkpt lat="44.0724393167" lon="4.3783770595"><ele>265.46</ele><time>2015-09-27T08:31:32Z</time></trkpt><trkpt lat="44.0724427532" lon="4.3783773948"><ele>265.46</ele><time>2015-09-27T08:31:49Z</time></trkpt><trkpt lat="44.0724280849" lon="4.3783828430"><ele>265.46</ele><time>2015-09-27T08:32:04Z</time></trkpt><trkpt lat="44.0724244807" lon="4.3783842679"><ele>265.46</ele><time>2015-09-27T08:32:25Z</time></trkpt><trkpt lat="44.0724739339" lon="4.3784270156"><ele>265.46</ele><time>2015-09-27T08:32:35Z</time></trkpt><trkpt lat="44.0724841598" lon="4.3784331344"><ele>265.46</ele><time>2015-09-27T08:32:36Z</time></trkpt><trkpt lat="44.0725174360" lon="4.3784299493"><ele>264.50</ele><time>2015-09-27T08:32:54Z</time></trkpt><trkpt lat="44.0724518057" lon="4.3783860281"><ele>264.50</ele><time>2015-09-27T08:33:28Z</time></trkpt><trkpt lat="44.0724035259" lon="4.3782931566"><ele>264.50</ele><time>2015-09-27T08:33:44Z</time></trkpt><trkpt lat="44.0723450202" lon="4.3781794142"><ele>265.46</ele><time>2015-09-27T08:34:02Z</time></trkpt><trkpt lat="44.0723377280" lon="4.3781708647"><ele>265.46</ele><time>2015-09-27T08:34:03Z</time></trkpt><trkpt lat="44.0722310264" lon="4.3778644223"><ele>265.94</ele><time>2015-09-27T08:34:22Z</time></trkpt><trkpt lat="44.0721886978" lon="4.3776465766"><ele>265.94</ele><time>2015-09-27T08:34:40Z</time></trkpt><trkpt lat="44.0721275099" lon="4.3774531223"><ele>265.94</ele><time>2015-09-27T08:34:58Z</time></trkpt><trkpt lat="44.0721021965" lon="4.3773847260"><ele>264.02</ele><time>2015-09-27T08:35:04Z</time></trkpt><trkpt lat="44.0720401704" lon="4.3772047665"><ele>264.02</ele><time>2015-09-27T08:35:19Z</time></trkpt><trkpt lat="44.0719519090" lon="4.3769615237"><ele>264.02</ele><time>2015-09-27T08:35:39Z</time></trkpt><trkpt lat="44.0718875360" lon="4.3767727632"><ele>264.02</ele><time>2015-09-27T08:35:55Z</time></trkpt><trkpt lat="44.0718413517" lon="4.3765715975"><ele>264.02</ele><time>2015-09-27T08:36:11Z</time></trkpt><trkpt lat="44.0718255099" lon="4.3764504790"><ele>263.54</ele><time>2015-09-27T08:36:22Z</time></trkpt><trkpt lat="44.0717950836" lon="4.3763590325"><ele>263.54</ele><time>2015-09-27T08:36:30Z</time></trkpt><trkpt lat="44.0717330575" lon="4.3761317991"><ele>263.54</ele><time>2015-09-27T08:36:47Z</time></trkpt><trkpt lat="44.0716800839" lon="4.3759204075"><ele>263.06</ele><time>2015-09-27T08:37:03Z</time></trkpt><trkpt lat="44.0716261044" lon="4.3757158890"><ele>263.06</ele><time>2015-09-27T08:37:19Z</time></trkpt><trkpt lat="44.0715755615" lon="4.3755206745"><ele>263.06</ele><time>2015-09-27T08:37:34Z</time></trkpt><trkpt lat="44.0715574566" lon="4.3754412141"><ele>264.50</ele><time>2015-09-27T08:37:40Z</time></trkpt><trkpt lat="44.0715110209" lon="4.3752755877"><ele>265.46</ele><time>2015-09-27T08:37:55Z</time></trkpt><trkpt lat="44.0714497492" lon="4.3750334345"><ele>265.46</ele><time>2015-09-27T08:38:13Z</time></trkpt><trkpt lat="44.0713936742" lon="4.3748180196"><ele>264.02</ele><time>2015-09-27T08:38:29Z</time></trkpt><trkpt lat="44.0713489987" lon="4.3746362999"><ele>264.02</ele><time>2015-09-27T08:38:44Z</time></trkpt><trkpt lat="44.0713046584" lon="4.3744415045"><ele>264.50</ele><time>2015-09-27T08:39:00Z</time></trkpt><trkpt lat="44.0712630842" lon="4.3741976749"><ele>264.50</ele><time>2015-09-27T08:39:18Z</time></trkpt><trkpt lat="44.0712412074" lon="4.3739936594"><ele>264.50</ele><time>2015-09-27T08:39:33Z</time></trkpt><trkpt lat="44.0712148044" lon="4.3737992831"><ele>264.50</ele><time>2015-09-27T08:39:48Z</time></trkpt><trkpt lat="44.0712012257" lon="4.3736006320"><ele>264.50</ele><time>2015-09-27T08:40:03Z</time></trkpt><trkpt lat="44.0711976215" lon="4.3735438865"><ele>264.50</ele><time>2015-09-27T08:40:07Z</time></trkpt><trkpt lat="44.0711961966" lon="4.3735284638"><ele>264.50</ele><time>2015-09-27T08:40:08Z</time></trkpt><trkpt lat="44.0711909160" lon="4.3735007197"><ele>265.46</ele><time>2015-09-27T08:40:10Z</time></trkpt><trkpt lat="44.0711664408" lon="4.3733106181"><ele>265.46</ele><time>2015-09-27T08:40:24Z</time></trkpt><trkpt lat="44.0711499285" lon="4.3731651921"><ele>265.46</ele><time>2015-09-27T08:40:36Z</time></trkpt><trkpt lat="44.0711331647" lon="4.3730598316"><ele>264.50</ele><time>2015-09-27T08:40:44Z</time></trkpt><trkpt lat="44.0711070970" lon="4.3728034291"><ele>263.54</ele><time>2015-09-27T08:41:03Z</time></trkpt><trkpt lat="44.0710897464" lon="4.3726298399"><ele>263.54</ele><time>2015-09-27T08:41:16Z</time></trkpt><trkpt lat="44.0710535366" lon="4.3724301830"><ele>263.54</ele><time>2015-09-27T08:41:31Z</time></trkpt><trkpt lat="44.0709910914" lon="4.3722265027"><ele>263.54</ele><time>2015-09-27T08:41:47Z</time></trkpt><trkpt lat="44.0708864015" lon="4.3720980082"><ele>264.98</ele><time>2015-09-27T08:42:01Z</time></trkpt><trkpt lat="44.0708762594" lon="4.3720917217"><ele>264.98</ele><time>2015-09-27T08:42:02Z</time></trkpt><trkpt lat="44.0708663687" lon="4.3720833398"><ele>264.98</ele><time>2015-09-27T08:42:03Z</time></trkpt><trkpt lat="44.0707415622" lon="4.3719930667"><ele>265.46</ele><time>2015-09-27T08:42:18Z</time></trkpt><trkpt lat="44.0705848206" lon="4.3718512449"><ele>265.94</ele><time>2015-09-27T08:42:36Z</time></trkpt><trkpt lat="44.0704701561" lon="4.3717630673"><ele>265.94</ele><time>2015-09-27T08:42:51Z</time></trkpt><trkpt lat="44.0704130754" lon="4.3717040587"><ele>265.94</ele><time>2015-09-27T08:42:59Z</time></trkpt><trkpt lat="44.0703094751" lon="4.3715740554"><ele>265.94</ele><time>2015-09-27T08:43:14Z</time></trkpt><trkpt lat="44.0702160168" lon="4.3714660965"><ele>265.94</ele><time>2015-09-27T08:43:28Z</time></trkpt><trkpt lat="44.0701450221" lon="4.3713341653"><ele>266.90</ele><time>2015-09-27T08:43:43Z</time></trkpt><trkpt lat="44.0701306891" lon="4.3712933455"><ele>266.90</ele><time>2015-09-27T08:43:47Z</time></trkpt><trkpt lat="44.0700639691" lon="4.3711444829"><ele>266.90</ele><time>2015-09-27T08:44:01Z</time></trkpt><trkpt lat="44.0699949022" lon="4.3709781021"><ele>266.90</ele><time>2015-09-27T08:44:17Z</time></trkpt><trkpt lat="44.0699825808" lon="4.3709050119"><ele>266.90</ele><time>2015-09-27T08:44:24Z</time></trkpt><trkpt lat="44.0699076466" lon="4.3707691412"><ele>267.38</ele><time>2015-09-27T08:44:39Z</time></trkpt><trkpt lat="44.0698864404" lon="4.3707633577"><ele>267.38</ele><time>2015-09-27T08:44:41Z</time></trkpt><trkpt lat="44.0698577743" lon="4.3707739189"><ele>267.38</ele><time>2015-09-27T08:44:44Z</time></trkpt><trkpt lat="44.0698480513" lon="4.3707790319"><ele>267.38</ele><time>2015-09-27T08:44:45Z</time></trkpt><trkpt lat="44.0697132703" lon="4.3708739150"><ele>267.86</ele><time>2015-09-27T08:45:02Z</time></trkpt><trkpt lat="44.0695685986" lon="4.3709707260"><ele>267.86</ele><time>2015-09-27T08:45:20Z</time></trkpt><trkpt lat="44.0694489051" lon="4.3710747454"><ele>267.86</ele><time>2015-09-27T08:45:36Z</time></trkpt><trkpt lat="44.0693286248" lon="4.3711822852"><ele>267.86</ele><time>2015-09-27T08:45:53Z</time></trkpt><trkpt lat="44.0691721346" lon="4.3713113666"><ele>266.90</ele><time>2015-09-27T08:46:13Z</time></trkpt><trkpt lat="44.0690246969" lon="4.3714189902"><ele>265.94</ele><time>2015-09-27T08:46:31Z</time></trkpt><trkpt lat="44.0688831266" lon="4.3715527654"><ele>265.46</ele><time>2015-09-27T08:46:48Z</time></trkpt><trkpt lat="44.0687715635" lon="4.3716102652"><ele>265.46</ele><time>2015-09-27T08:47:01Z</time></trkpt><trkpt lat="44.0686699748" lon="4.3714872189"><ele>264.98</ele><time>2015-09-27T08:47:18Z</time></trkpt><trkpt lat="44.0685391333" lon="4.3714054115"><ele>264.50</ele><time>2015-09-27T08:47:36Z</time></trkpt><trkpt lat="44.0685011633" lon="4.3713515159"><ele>264.50</ele><time>2015-09-27T08:47:50Z</time></trkpt><trkpt lat="44.0684912726" lon="4.3713383563"><ele>264.50</ele><time>2015-09-27T08:47:51Z</time></trkpt><trkpt lat="44.0683767758" lon="4.3710711412"><ele>264.02</ele><time>2015-09-27T08:48:11Z</time></trkpt><trkpt lat="44.0683168452" lon="4.3707966339"><ele>264.02</ele><time>2015-09-27T08:48:30Z</time></trkpt><trkpt lat="44.0682819765" lon="4.3707355298"><ele>264.02</ele><time>2015-09-27T08:48:35Z</time></trkpt><trkpt lat="44.0682505444" lon="4.3706288282"><ele>264.02</ele><time>2015-09-27T08:48:53Z</time></trkpt><trkpt lat="44.0681612771" lon="4.3703469448"><ele>263.54</ele><time>2015-09-27T08:49:12Z</time></trkpt><trkpt lat="44.0680438466" lon="4.3700050469"><ele>263.06</ele><time>2015-09-27T08:49:35Z</time></trkpt><trkpt lat="44.0679475386" lon="4.3696789909"><ele>263.06</ele><time>2015-09-27T08:49:56Z</time></trkpt><trkpt lat="44.0679323673" lon="4.3696285319"><ele>263.06</ele><time>2015-09-27T08:50:00Z</time></trkpt><trkpt lat="44.0679241531" lon="4.3696033023"><ele>263.06</ele><time>2015-09-27T08:50:02Z</time></trkpt><trkpt lat="44.0679193754" lon="4.3695882149"><ele>263.06</ele><time>2015-09-27T08:50:03Z</time></trkpt><trkpt lat="44.0678431001" lon="4.3693624064"><ele>262.58</ele><time>2015-09-27T08:50:19Z</time></trkpt><trkpt lat="44.0677693393" lon="4.3691068422"><ele>262.58</ele><time>2015-09-27T08:50:37Z</time></trkpt><trkpt lat="44.0676992666" lon="4.3688548822"><ele>262.58</ele><time>2015-09-27T08:50:54Z</time></trkpt><trkpt lat="44.0676769707" lon="4.3687884975"><ele>262.58</ele><time>2015-09-27T08:50:59Z</time></trkpt><trkpt lat="44.0676721931" lon="4.3687740806"><ele>262.58</ele><time>2015-09-27T08:51:00Z</time></trkpt><trkpt lat="44.0676643141" lon="4.3687600829"><ele>262.58</ele><time>2015-09-27T08:51:01Z</time></trkpt><trkpt lat="44.0676571894" lon="4.3687463365"><ele>262.58</ele><time>2015-09-27T08:51:02Z</time></trkpt><trkpt lat="44.0676500648" lon="4.3687329255"><ele>262.58</ele><time>2015-09-27T08:51:03Z</time></trkpt><trkpt lat="44.0676434431" lon="4.3687192630"><ele>262.58</ele><time>2015-09-27T08:51:04Z</time></trkpt><trkpt lat="44.0676370729" lon="4.3687050976"><ele>262.58</ele><time>2015-09-27T08:51:05Z</time></trkpt><trkpt lat="44.0675031301" lon="4.3686703127"><ele>262.58</ele><time>2015-09-27T08:51:19Z</time></trkpt><trkpt lat="44.0674954187" lon="4.3686816283"><ele>262.58</ele><time>2015-09-27T08:51:20Z</time></trkpt><trkpt lat="44.0674864501" lon="4.3686952908"><ele>262.58</ele><time>2015-09-27T08:51:21Z</time></trkpt><trkpt lat="44.0674799960" lon="4.3687097076"><ele>262.58</ele><time>2015-09-27T08:51:22Z</time></trkpt><trkpt lat="44.0674727876" lon="4.3687238730"><ele>262.58</ele><time>2015-09-27T08:51:23Z</time></trkpt><trkpt lat="44.0673531778" lon="4.3689081073"><ele>261.62</ele><time>2015-09-27T08:51:39Z</time></trkpt><trkpt lat="44.0672349092" lon="4.3690575566"><ele>261.14</ele><time>2015-09-27T08:51:53Z</time></trkpt><trkpt lat="44.0670960210" lon="4.3692668527"><ele>260.17</ele><time>2015-09-27T08:52:10Z</time></trkpt><trkpt lat="44.0669710469" lon="4.3694467284"><ele>259.21</ele><time>2015-09-27T08:52:26Z</time></trkpt><trkpt lat="44.0668336675" lon="4.3696444575"><ele>258.25</ele><time>2015-09-27T08:52:43Z</time></trkpt><trkpt lat="44.0667055082" lon="4.3698180467"><ele>258.25</ele><time>2015-09-27T08:52:59Z</time></trkpt><trkpt lat="44.0665776003" lon="4.3699867744"><ele>257.77</ele><time>2015-09-27T08:53:14Z</time></trkpt><trkpt lat="44.0664453339" lon="4.3701346312"><ele>257.77</ele><time>2015-09-27T08:53:29Z</time></trkpt><trkpt lat="44.0663074516" lon="4.3702240661"><ele>257.77</ele><time>2015-09-27T08:53:42Z</time></trkpt><trkpt lat="44.0662979800" lon="4.3702311069"><ele>257.77</ele><time>2015-09-27T08:53:43Z</time></trkpt><trkpt lat="44.0662874188" lon="4.3702342920"><ele>257.77</ele><time>2015-09-27T08:53:44Z</time></trkpt><trkpt lat="44.0662750974" lon="4.3702379800"><ele>257.77</ele><time>2015-09-27T08:53:45Z</time></trkpt><trkpt lat="44.0661015082" lon="4.3702700827"><ele>257.77</ele><time>2015-09-27T08:54:01Z</time></trkpt><trkpt lat="44.0659162682" lon="4.3702908698"><ele>257.77</ele><time>2015-09-27T08:54:18Z</time></trkpt><trkpt lat="44.0657417569" lon="4.3703146745"><ele>257.77</ele><time>2015-09-27T08:54:34Z</time></trkpt><trkpt lat="44.0655529127" lon="4.3703480344"><ele>258.73</ele><time>2015-09-27T08:54:52Z</time></trkpt><trkpt lat="44.0653609671" lon="4.3703758623"><ele>258.73</ele><time>2015-09-27T08:55:09Z</time></trkpt><trkpt lat="44.0651985258" lon="4.3704016786"><ele>258.73</ele><time>2015-09-27T08:55:23Z</time></trkpt><trkpt lat="44.0651592985" lon="4.3704057019"><ele>257.77</ele><time>2015-09-27T08:55:26Z</time></trkpt><trkpt lat="44.0649618208" lon="4.3704431690"><ele>257.77</ele><time>2015-09-27T08:55:43Z</time></trkpt><trkpt lat="44.0648058336" lon="4.3704663869"><ele>257.29</ele><time>2015-09-27T08:55:58Z</time></trkpt><trkpt lat="44.0646241140" lon="4.3705058657"><ele>257.29</ele><time>2015-09-27T08:56:14Z</time></trkpt><trkpt lat="44.0644348506" lon="4.3705668859"><ele>257.29</ele><time>2015-09-27T08:56:30Z</time></trkpt><trkpt lat="44.0643050149" lon="4.3705883436"><ele>256.81</ele><time>2015-09-27T08:56:42Z</time></trkpt><trkpt lat="44.0642941184" lon="4.3705927860"><ele>256.81</ele><time>2015-09-27T08:56:43Z</time></trkpt><trkpt lat="44.0642823000" lon="4.3705952168"><ele>256.81</ele><time>2015-09-27T08:56:44Z</time></trkpt><trkpt lat="44.0642697271" lon="4.3705951329"><ele>256.81</ele><time>2015-09-27T08:56:45Z</time></trkpt><trkpt lat="44.0641401429" lon="4.3706355337"><ele>256.81</ele><time>2015-09-27T08:56:57Z</time></trkpt><trkpt lat="44.0639864188" lon="4.3706650380"><ele>256.81</ele><time>2015-09-27T08:57:11Z</time></trkpt><trkpt lat="44.0638033580" lon="4.3707233761"><ele>258.25</ele><time>2015-09-27T08:57:28Z</time></trkpt><trkpt lat="44.0635854285" lon="4.3707779422"><ele>256.81</ele><time>2015-09-27T08:57:48Z</time></trkpt><trkpt lat="44.0633515734" lon="4.3708097935"><ele>256.81</ele><time>2015-09-27T08:58:10Z</time></trkpt><trkpt lat="44.0631734580" lon="4.3708178401"><ele>256.81</ele><time>2015-09-27T08:58:27Z</time></trkpt><trkpt lat="44.0629938338" lon="4.3708050996"><ele>257.77</ele><time>2015-09-27T08:58:44Z</time></trkpt><trkpt lat="44.0628051572" lon="4.3707770202"><ele>258.73</ele><time>2015-09-27T08:59:02Z</time></trkpt><trkpt lat="44.0626302268" lon="4.3707662914"><ele>260.17</ele><time>2015-09-27T08:59:19Z</time></trkpt><trkpt lat="44.0624560509" lon="4.3707711529"><ele>262.10</ele><time>2015-09-27T08:59:36Z</time></trkpt><trkpt lat="44.0624186676" lon="4.3707863241"><ele>262.58</ele><time>2015-09-27T08:59:52Z</time></trkpt><trkpt lat="44.0624050051" lon="4.3707756791"><ele>262.58</ele><time>2015-09-27T08:59:55Z</time></trkpt><trkpt lat="44.0623940248" lon="4.3707710691"><ele>262.58</ele><time>2015-09-27T08:59:56Z</time></trkpt><trkpt lat="44.0621561464" lon="4.3707192689"><ele>263.06</ele><time>2015-09-27T09:00:15Z</time></trkpt><trkpt lat="44.0619435813" lon="4.3707112223"><ele>263.06</ele><time>2015-09-27T09:00:34Z</time></trkpt><trkpt lat="44.0617176052" lon="4.3707110547"><ele>263.06</ele><time>2015-09-27T09:00:52Z</time></trkpt><trkpt lat="44.0614279266" lon="4.3708202709"><ele>263.06</ele><time>2015-09-27T09:01:14Z</time></trkpt><trkpt lat="44.0611520782" lon="4.3709159084"><ele>263.06</ele><time>2015-09-27T09:01:37Z</time></trkpt><trkpt lat="44.0609375015" lon="4.3709733244"><ele>264.02</ele><time>2015-09-27T09:01:56Z</time></trkpt><trkpt lat="44.0607573744" lon="4.3709879089"><ele>264.02</ele><time>2015-09-27T09:02:13Z</time></trkpt><trkpt lat="44.0605806839" lon="4.3709594104"><ele>264.02</ele><time>2015-09-27T09:02:29Z</time></trkpt><trkpt lat="44.0603973716" lon="4.3709844723"><ele>264.50</ele><time>2015-09-27T09:02:47Z</time></trkpt><trkpt lat="44.0603429731" lon="4.3710176647"><ele>263.06</ele><time>2015-09-27T09:02:53Z</time></trkpt><trkpt lat="44.0602898318" lon="4.3710596580"><ele>261.62</ele><time>2015-09-27T09:03:08Z</time></trkpt><trkpt lat="44.0601809509" lon="4.3711466622"><ele>260.17</ele><time>2015-09-27T09:03:26Z</time></trkpt><trkpt lat="44.0601290669" lon="4.3712045811"><ele>259.69</ele><time>2015-09-27T09:03:32Z</time></trkpt><trkpt lat="44.0599781927" lon="4.3713431340"><ele>256.33</ele><time>2015-09-27T09:03:48Z</time></trkpt><trkpt lat="44.0598786995" lon="4.3715851195"><ele>254.89</ele><time>2015-09-27T09:04:05Z</time></trkpt><trkpt lat="44.0598248877" lon="4.3718520831"><ele>252.96</ele><time>2015-09-27T09:04:22Z</time></trkpt><trkpt lat="44.0597928688" lon="4.3719938211"><ele>252.00</ele><time>2015-09-27T09:04:39Z</time></trkpt><trkpt lat="44.0597491153" lon="4.3722172827"><ele>249.60</ele><time>2015-09-27T09:04:54Z</time></trkpt><trkpt lat="44.0597445052" lon="4.3722324539"><ele>249.12</ele><time>2015-09-27T09:04:55Z</time></trkpt><trkpt lat="44.0597403981" lon="4.3722486310"><ele>249.12</ele><time>2015-09-27T09:04:56Z</time></trkpt><trkpt lat="44.0596777853" lon="4.3725681491"><ele>247.20</ele><time>2015-09-27T09:05:18Z</time></trkpt><trkpt lat="44.0596440900" lon="4.3728459254"><ele>243.83</ele><time>2015-09-27T09:05:39Z</time></trkpt><trkpt lat="44.0595690720" lon="4.3729765154"><ele>242.87</ele><time>2015-09-27T09:05:53Z</time></trkpt><trkpt lat="44.0595525596" lon="4.3729894236"><ele>242.39</ele><time>2015-09-27T09:05:55Z</time></trkpt><trkpt lat="44.0595431719" lon="4.3729954585"><ele>242.39</ele><time>2015-09-27T09:05:56Z</time></trkpt><trkpt lat="44.0593919624" lon="4.3730734102"><ele>239.02</ele><time>2015-09-27T09:06:12Z</time></trkpt><trkpt lat="44.0592534095" lon="4.3732376955"><ele>236.14</ele><time>2015-09-27T09:06:30Z</time></trkpt><trkpt lat="44.0592300240" lon="4.3733345065"><ele>235.18</ele><time>2015-09-27T09:06:48Z</time></trkpt><trkpt lat="44.0591932274" lon="4.3734495901"><ele>234.22</ele><time>2015-09-27T09:07:03Z</time></trkpt><trkpt lat="44.0591297764" lon="4.3735671043"><ele>231.81</ele><time>2015-09-27T09:07:14Z</time></trkpt><trkpt lat="44.0590389166" lon="4.3736916594"><ele>228.45</ele><time>2015-09-27T09:07:28Z</time></trkpt><trkpt lat="44.0590270143" lon="4.3737039808"><ele>228.45</ele><time>2015-09-27T09:07:30Z</time></trkpt><trkpt lat="44.0590182971" lon="4.3737117760"><ele>227.97</ele><time>2015-09-27T09:07:31Z</time></trkpt><trkpt lat="44.0589642338" lon="4.3737955950"><ele>226.53</ele><time>2015-09-27T09:07:47Z</time></trkpt><trkpt lat="44.0589373279" lon="4.3739531748"><ele>223.64</ele><time>2015-09-27T09:08:02Z</time></trkpt><trkpt lat="44.0589504037" lon="4.3741754629"><ele>220.28</ele><time>2015-09-27T09:08:20Z</time></trkpt><trkpt lat="44.0589914750" lon="4.3744073063"><ele>217.40</ele><time>2015-09-27T09:08:39Z</time></trkpt><trkpt lat="44.0590487234" lon="4.3745798059"><ele>214.51</ele><time>2015-09-27T09:08:56Z</time></trkpt><trkpt lat="44.0589829255" lon="4.3746758625"><ele>213.07</ele><time>2015-09-27T09:09:10Z</time></trkpt><trkpt lat="44.0589655749" lon="4.3746857531"><ele>212.59</ele><time>2015-09-27T09:09:12Z</time></trkpt><trkpt lat="44.0588722844" lon="4.3747408222"><ele>211.15</ele><time>2015-09-27T09:09:22Z</time></trkpt><trkpt lat="44.0588442888" lon="4.3747609388"><ele>211.15</ele><time>2015-09-27T09:09:25Z</time></trkpt><trkpt lat="44.0588343982" lon="4.3747691531"><ele>211.15</ele><time>2015-09-27T09:09:26Z</time></trkpt><trkpt lat="44.0588245075" lon="4.3747775350"><ele>210.67</ele><time>2015-09-27T09:09:27Z</time></trkpt><trkpt lat="44.0586884692" lon="4.3749065325"><ele>208.74</ele><time>2015-09-27T09:09:44Z</time></trkpt><trkpt lat="44.0584883932" lon="4.3749646191"><ele>206.82</ele><time>2015-09-27T09:10:04Z</time></trkpt><trkpt lat="44.0582984593" lon="4.3749715760"><ele>204.90</ele><time>2015-09-27T09:10:22Z</time></trkpt><trkpt lat="44.0581190865" lon="4.3749800418"><ele>202.98</ele><time>2015-09-27T09:10:40Z</time></trkpt><trkpt lat="44.0580665320" lon="4.3749904353"><ele>202.01</ele><time>2015-09-27T09:10:54Z</time></trkpt><trkpt lat="44.0580569766" lon="4.3749868311"><ele>202.01</ele><time>2015-09-27T09:11:07Z</time></trkpt><trkpt lat="44.0580549650" lon="4.3749898486"><ele>202.01</ele><time>2015-09-27T09:11:31Z</time></trkpt><trkpt lat="44.0580513608" lon="4.3750308361"><ele>202.01</ele><time>2015-09-27T09:12:00Z</time></trkpt><trkpt lat="44.0580545459" lon="4.3750390504"><ele>201.53</ele><time>2015-09-27T09:12:28Z</time></trkpt><trkpt lat="44.0580558032" lon="4.3750248011"><ele>201.53</ele><time>2015-09-27T09:12:58Z</time></trkpt><trkpt lat="44.0580459125" lon="4.3749910221"><ele>201.53</ele><time>2015-09-27T09:13:29Z</time></trkpt><trkpt lat="44.0580569766" lon="4.3750057742"><ele>201.53</ele><time>2015-09-27T09:13:56Z</time></trkpt><trkpt lat="44.0580496006" lon="4.3750219513"><ele>201.53</ele><time>2015-09-27T09:14:33Z</time></trkpt><trkpt lat="44.0580469184" lon="4.3750111386"><ele>201.53</ele><time>2015-09-27T09:15:05Z</time></trkpt><trkpt lat="44.0580420569" lon="4.3750148267"><ele>201.53</ele><time>2015-09-27T09:15:31Z</time></trkpt><trkpt lat="44.0580417216" lon="4.3750185147"><ele>201.53</ele><time>2015-09-27T09:15:59Z</time></trkpt><trkpt lat="44.0580371954" lon="4.3750188500"><ele>201.53</ele><time>2015-09-27T09:16:23Z</time></trkpt><trkpt lat="44.0579735767" lon="4.3750031758"><ele>201.05</ele><time>2015-09-27T09:16:44Z</time></trkpt><trkpt lat="44.0579040069" lon="4.3749385513"><ele>200.57</ele><time>2015-09-27T09:16:55Z</time></trkpt><trkpt lat="44.0578972176" lon="4.3749269005"><ele>200.57</ele><time>2015-09-27T09:16:56Z</time></trkpt><trkpt lat="44.0578868240" lon="4.3749023415"><ele>200.57</ele><time>2015-09-27T09:16:58Z</time></trkpt><trkpt lat="44.0578828007" lon="4.3748860806"><ele>200.57</ele><time>2015-09-27T09:16:59Z</time></trkpt><trkpt lat="44.0578766819" lon="4.3748676404"><ele>200.09</ele><time>2015-09-27T09:17:00Z</time></trkpt><trkpt lat="44.0578683000" lon="4.3748499546"><ele>200.09</ele><time>2015-09-27T09:17:01Z</time></trkpt><trkpt lat="44.0578594152" lon="4.3748315983"><ele>200.09</ele><time>2015-09-27T09:17:02Z</time></trkpt><trkpt lat="44.0578513686" lon="4.3748124037"><ele>200.09</ele><time>2015-09-27T09:17:03Z</time></trkpt><trkpt lat="44.0576863289" lon="4.3744895328"><ele>199.61</ele><time>2015-09-27T09:17:20Z</time></trkpt><trkpt lat="44.0576724987" lon="4.3744593579"><ele>199.13</ele><time>2015-09-27T09:17:32Z</time></trkpt><trkpt lat="44.0576742589" lon="4.3744451087"><ele>199.13</ele><time>2015-09-27T09:17:33Z</time></trkpt><trkpt lat="44.0576749295" lon="4.3744285963"><ele>199.13</ele><time>2015-09-27T09:17:34Z</time></trkpt><trkpt lat="44.0576610994" lon="4.3743678275"><ele>199.13</ele><time>2015-09-27T09:17:39Z</time></trkpt><trkpt lat="44.0575691499" lon="4.3740877043"><ele>196.25</ele><time>2015-09-27T09:18:00Z</time></trkpt><trkpt lat="44.0575267375" lon="4.3737635761"><ele>195.77</ele><time>2015-09-27T09:18:22Z</time></trkpt><trkpt lat="44.0575166792" lon="4.3736545276"><ele>195.28</ele><time>2015-09-27T09:18:29Z</time></trkpt><trkpt lat="44.0575179365" lon="4.3735836167"><ele>195.28</ele><time>2015-09-27T09:18:34Z</time></trkpt><trkpt lat="44.0575214569" lon="4.3735399470"><ele>196.25</ele><time>2015-09-27T09:18:37Z</time></trkpt><trkpt lat="44.0575224627" lon="4.3735254463"><ele>196.25</ele><time>2015-09-27T09:18:38Z</time></trkpt><trkpt lat="44.0575246420" lon="4.3735095207"><ele>196.25</ele><time>2015-09-27T09:18:39Z</time></trkpt><trkpt lat="44.0575279109" lon="4.3734942656"><ele>196.25</ele><time>2015-09-27T09:18:40Z</time></trkpt><trkpt lat="44.0575279947" lon="4.3732139748"><ele>197.21</ele><time>2015-09-27T09:18:59Z</time></trkpt><trkpt lat="44.0575003345" lon="4.3731218576"><ele>197.21</ele><time>2015-09-27T09:19:06Z</time></trkpt><trkpt lat="44.0574031882" lon="4.3730081990"><ele>195.77</ele><time>2015-09-27T09:19:18Z</time></trkpt><trkpt lat="44.0572238155" lon="4.3729399703"><ele>192.88</ele><time>2015-09-27T09:19:35Z</time></trkpt><trkpt lat="44.0570404194" lon="4.3729749229"><ele>189.52</ele><time>2015-09-27T09:19:54Z</time></trkpt><trkpt lat="44.0569648147" lon="4.3730058521"><ele>188.56</ele><time>2015-09-27T09:20:01Z</time></trkpt><trkpt lat="44.0569514036" lon="4.3730042595"><ele>188.56</ele><time>2015-09-27T09:20:02Z</time></trkpt><trkpt lat="44.0567960870" lon="4.3730188441"><ele>186.63</ele><time>2015-09-27T09:20:17Z</time></trkpt><trkpt lat="44.0566330589" lon="4.3730508629"><ele>184.23</ele><time>2015-09-27T09:20:33Z</time></trkpt><trkpt lat="44.0564703662" lon="4.3730917666"><ele>182.79</ele><time>2015-09-27T09:20:50Z</time></trkpt><trkpt lat="44.0562972799" lon="4.3732773419"><ele>180.38</ele><time>2015-09-27T09:21:11Z</time></trkpt><trkpt lat="44.0561597329" lon="4.3734734785"><ele>180.87</ele><time>2015-09-27T09:21:31Z</time></trkpt><trkpt lat="44.0559637640" lon="4.3736245204"><ele>180.87</ele><time>2015-09-27T09:21:51Z</time></trkpt><trkpt lat="44.0558595769" lon="4.3737352453"><ele>180.87</ele><time>2015-09-27T09:22:03Z</time></trkpt><trkpt lat="44.0558526199" lon="4.3737454712"><ele>180.87</ele><time>2015-09-27T09:22:04Z</time></trkpt><trkpt lat="44.0557687171" lon="4.3738250993"><ele>181.83</ele><time>2015-09-27T09:22:14Z</time></trkpt><trkpt lat="44.0555749275" lon="4.3738476466"><ele>181.83</ele><time>2015-09-27T09:22:31Z</time></trkpt><trkpt lat="44.0553477779" lon="4.3738138676"><ele>182.31</ele><time>2015-09-27T09:22:50Z</time></trkpt><trkpt lat="44.0551504679" lon="4.3737753946"><ele>183.27</ele><time>2015-09-27T09:23:07Z</time></trkpt><trkpt lat="44.0549898706" lon="4.3737565354"><ele>184.23</ele><time>2015-09-27T09:23:23Z</time></trkpt><trkpt lat="44.0549817402" lon="4.3737657554"><ele>184.23</ele><time>2015-09-27T09:23:24Z</time></trkpt><trkpt lat="44.0548814088" lon="4.3739237543"><ele>185.67</ele><time>2015-09-27T09:23:39Z</time></trkpt><trkpt lat="44.0546951629" lon="4.3740524165"><ele>182.31</ele><time>2015-09-27T09:24:00Z</time></trkpt><trkpt lat="44.0545514133" lon="4.3741479702"><ele>178.94</ele><time>2015-09-27T09:24:18Z</time></trkpt><trkpt lat="44.0544338152" lon="4.3742136005"><ele>176.54</ele><time>2015-09-27T09:24:35Z</time></trkpt><trkpt lat="44.0542544425" lon="4.3743442744"><ele>173.66</ele><time>2015-09-27T09:24:55Z</time></trkpt><trkpt lat="44.0541192424" lon="4.3745021056"><ele>171.25</ele><time>2015-09-27T09:25:11Z</time></trkpt><trkpt lat="44.0539951064" lon="4.3746270798"><ele>169.81</ele><time>2015-09-27T09:25:25Z</time></trkpt><trkpt lat="44.0539845452" lon="4.3746357132"><ele>169.81</ele><time>2015-09-27T09:25:26Z</time></trkpt><trkpt lat="44.0539745707" lon="4.3746463582"><ele>169.81</ele><time>2015-09-27T09:25:27Z</time></trkpt><trkpt lat="44.0539645962" lon="4.3746577576"><ele>169.81</ele><time>2015-09-27T09:25:28Z</time></trkpt><trkpt lat="44.0539536159" lon="4.3746689055"><ele>169.81</ele><time>2015-09-27T09:25:29Z</time></trkpt><trkpt lat="44.0539410431" lon="4.3746759463"><ele>169.33</ele><time>2015-09-27T09:25:30Z</time></trkpt><trkpt lat="44.0539305657" lon="4.3746883515"><ele>169.33</ele><time>2015-09-27T09:25:31Z</time></trkpt><trkpt lat="44.0539225191" lon="4.3747039419"><ele>169.33</ele><time>2015-09-27T09:25:32Z</time></trkpt><trkpt lat="44.0538284741" lon="4.3748131581"><ele>166.93</ele><time>2015-09-27T09:25:51Z</time></trkpt><trkpt lat="44.0538200922" lon="4.3748227134"><ele>166.93</ele><time>2015-09-27T09:26:14Z</time></trkpt><trkpt lat="44.0538102854" lon="4.3748118170"><ele>168.37</ele><time>2015-09-27T09:26:36Z</time></trkpt><trkpt lat="44.0538067650" lon="4.3748321850"><ele>168.37</ele><time>2015-09-27T09:26:48Z</time></trkpt><trkpt lat="44.0538048372" lon="4.3748284969"><ele>168.37</ele><time>2015-09-27T09:27:05Z</time></trkpt><trkpt lat="44.0537958685" lon="4.3748393096"><ele>166.93</ele><time>2015-09-27T09:27:20Z</time></trkpt><trkpt lat="44.0537950303" lon="4.3748405669"><ele>166.93</ele><time>2015-09-27T09:27:21Z</time></trkpt><trkpt lat="44.0537868999" lon="4.3748313468"><ele>166.93</ele><time>2015-09-27T09:27:44Z</time></trkpt><trkpt lat="44.0537566412" lon="4.3747656327"><ele>166.93</ele><time>2015-09-27T09:28:00Z</time></trkpt><trkpt lat="44.0536983870" lon="4.3746509682"><ele>165.48</ele><time>2015-09-27T09:28:13Z</time></trkpt><trkpt lat="44.0536366962" lon="4.3744273391"><ele>164.52</ele><time>2015-09-27T09:28:30Z</time></trkpt><trkpt lat="44.0536165796" lon="4.3741761334"><ele>164.04</ele><time>2015-09-27T09:28:45Z</time></trkpt><trkpt lat="44.0535775200" lon="4.3739199825"><ele>164.04</ele><time>2015-09-27T09:29:03Z</time></trkpt><trkpt lat="44.0534498636" lon="4.3737508357"><ele>164.04</ele><time>2015-09-27T09:29:20Z</time></trkpt><trkpt lat="44.0533261467" lon="4.3736115284"><ele>165.48</ele><time>2015-09-27T09:29:38Z</time></trkpt><trkpt lat="44.0531979874" lon="4.3735191599"><ele>165.48</ele><time>2015-09-27T09:29:53Z</time></trkpt><trkpt lat="44.0530570038" lon="4.3733526114"><ele>166.93</ele><time>2015-09-27T09:30:11Z</time></trkpt><trkpt lat="44.0530297626" lon="4.3733020686"><ele>166.93</ele><time>2015-09-27T09:30:14Z</time></trkpt><trkpt lat="44.0529453568" lon="4.3731723167"><ele>167.41</ele><time>2015-09-27T09:30:24Z</time></trkpt><trkpt lat="44.0528070554" lon="4.3730742484"><ele>167.41</ele><time>2015-09-27T09:30:38Z</time></trkpt><trkpt lat="44.0526809078" lon="4.3729553092"><ele>165.48</ele><time>2015-09-27T09:30:54Z</time></trkpt><trkpt lat="44.0526007768" lon="4.3728844821"><ele>165.00</ele><time>2015-09-27T09:31:04Z</time></trkpt><trkpt lat="44.0524635650" lon="4.3727133237"><ele>163.56</ele><time>2015-09-27T09:31:20Z</time></trkpt><trkpt lat="44.0523265209" lon="4.3725067098"><ele>162.60</ele><time>2015-09-27T09:31:38Z</time></trkpt><trkpt lat="44.0521968529" lon="4.3723034486"><ele>164.04</ele><time>2015-09-27T09:31:55Z</time></trkpt><trkpt lat="44.0520722978" lon="4.3721042108"><ele>164.04</ele><time>2015-09-27T09:32:10Z</time></trkpt><trkpt lat="44.0519048274" lon="4.3718807492"><ele>161.64</ele><time>2015-09-27T09:32:29Z</time></trkpt><trkpt lat="44.0517790150" lon="4.3716764823"><ele>160.20</ele><time>2015-09-27T09:32:47Z</time></trkpt><trkpt lat="44.0517104510" lon="4.3714893144"><ele>161.16</ele><time>2015-09-27T09:33:04Z</time></trkpt><trkpt lat="44.0516760014" lon="4.3714658450"><ele>161.64</ele><time>2015-09-27T09:33:21Z</time></trkpt><trkpt lat="44.0515630133" lon="4.3711955287"><ele>160.20</ele><time>2015-09-27T09:33:42Z</time></trkpt><trkpt lat="44.0514567308" lon="4.3709209375"><ele>159.72</ele><time>2015-09-27T09:34:02Z</time></trkpt><trkpt lat="44.0513599198" lon="4.3706470169"><ele>159.24</ele><time>2015-09-27T09:34:20Z</time></trkpt><trkpt lat="44.0512613486" lon="4.3704165984"><ele>157.79</ele><time>2015-09-27T09:34:36Z</time></trkpt><trkpt lat="44.0512235463" lon="4.3701885268"><ele>156.83</ele><time>2015-09-27T09:34:53Z</time></trkpt><trkpt lat="44.0512167569" lon="4.3699866906"><ele>156.83</ele><time>2015-09-27T09:35:13Z</time></trkpt><trkpt lat="44.0512182657" lon="4.3696915638"><ele>156.83</ele><time>2015-09-27T09:35:33Z</time></trkpt><trkpt lat="44.0512356162" lon="4.3694111053"><ele>158.27</ele><time>2015-09-27T09:35:54Z</time></trkpt><trkpt lat="44.0512621030" lon="4.3691272940"><ele>160.20</ele><time>2015-09-27T09:36:14Z</time></trkpt><trkpt lat="44.0512313414" lon="4.3688492663"><ele>160.20</ele><time>2015-09-27T09:36:33Z</time></trkpt><trkpt lat="44.0512232948" lon="4.3685597554"><ele>159.24</ele><time>2015-09-27T09:36:52Z</time></trkpt><trkpt lat="44.0512305871" lon="4.3683470227"><ele>157.31</ele><time>2015-09-27T09:37:09Z</time></trkpt><trkpt lat="44.0512408130" lon="4.3681527302"><ele>155.87</ele><time>2015-09-27T09:37:26Z</time></trkpt><trkpt lat="44.0512399748" lon="4.3679737765"><ele>153.95</ele><time>2015-09-27T09:37:41Z</time></trkpt><trkpt lat="44.0512184333" lon="4.3677875306"><ele>152.03</ele><time>2015-09-27T09:37:58Z</time></trkpt><trkpt lat="44.0512267314" lon="4.3676424399"><ele>150.10</ele><time>2015-09-27T09:38:12Z</time></trkpt><trkpt lat="44.0512455907" lon="4.3675100058"><ele>149.62</ele><time>2015-09-27T09:38:27Z</time></trkpt><trkpt lat="44.0512558166" lon="4.3674345687"><ele>148.66</ele><time>2015-09-27T09:38:45Z</time></trkpt><trkpt lat="44.0513316728" lon="4.3672528490"><ele>146.74</ele><time>2015-09-27T09:39:01Z</time></trkpt><trkpt lat="44.0514435712" lon="4.3671063334"><ele>145.30</ele><time>2015-09-27T09:39:20Z</time></trkpt><trkpt lat="44.0514882468" lon="4.3669517711"><ele>143.85</ele><time>2015-09-27T09:39:40Z</time></trkpt><trkpt lat="44.0515373647" lon="4.3668760825"><ele>142.41</ele><time>2015-09-27T09:39:49Z</time></trkpt><trkpt lat="44.0516563877" lon="4.3667355180"><ele>140.97</ele><time>2015-09-27T09:40:06Z</time></trkpt><trkpt lat="44.0517687052" lon="4.3665603362"><ele>140.01</ele><time>2015-09-27T09:40:25Z</time></trkpt><trkpt lat="44.0518993791" lon="4.3662994914"><ele>138.57</ele><time>2015-09-27T09:40:45Z</time></trkpt><trkpt lat="44.0519640036" lon="4.3660514709"><ele>137.13</ele><time>2015-09-27T09:41:06Z</time></trkpt><trkpt lat="44.0520214196" lon="4.3658083118"><ele>136.64</ele><time>2015-09-27T09:41:25Z</time></trkpt><trkpt lat="44.0521035623" lon="4.3654716108"><ele>135.68</ele><time>2015-09-27T09:41:48Z</time></trkpt><trkpt lat="44.0521524288" lon="4.3652166333"><ele>135.68</ele><time>2015-09-27T09:42:05Z</time></trkpt><trkpt lat="44.0521880519" lon="4.3649423774"><ele>137.13</ele><time>2015-09-27T09:42:24Z</time></trkpt><trkpt lat="44.0522179753" lon="4.3645975459"><ele>134.24</ele><time>2015-09-27T09:42:47Z</time></trkpt><trkpt lat="44.0522226691" lon="4.3644607533"><ele>133.76</ele><time>2015-09-27T09:42:55Z</time></trkpt><trkpt lat="44.0522288717" lon="4.3641469348"><ele>132.32</ele><time>2015-09-27T09:43:17Z</time></trkpt><trkpt lat="44.0522587113" lon="4.3638767861"><ele>131.84</ele><time>2015-09-27T09:43:35Z</time></trkpt><trkpt lat="44.0522980224" lon="4.3636015244"><ele>131.36</ele><time>2015-09-27T09:43:55Z</time></trkpt><trkpt lat="44.0523342323" lon="4.3634200562"><ele>130.40</ele><time>2015-09-27T09:44:07Z</time></trkpt><trkpt lat="44.0524116810" lon="4.3631157931"><ele>130.40</ele><time>2015-09-27T09:44:28Z</time></trkpt><trkpt lat="44.0524681751" lon="4.3629069999"><ele>129.43</ele><time>2015-09-27T09:44:46Z</time></trkpt><trkpt lat="44.0525699314" lon="4.3625661079"><ele>129.43</ele><time>2015-09-27T09:45:09Z</time></trkpt><trkpt lat="44.0526258387" lon="4.3623144832"><ele>128.95</ele><time>2015-09-27T09:45:28Z</time></trkpt><trkpt lat="44.0526409261" lon="4.3622144032"><ele>128.47</ele><time>2015-09-27T09:45:43Z</time></trkpt><trkpt lat="44.0526419319" lon="4.3621634413"><ele>128.47</ele><time>2015-09-27T09:46:07Z</time></trkpt><trkpt lat="44.0526187979" lon="4.3621696439"><ele>128.47</ele><time>2015-09-27T09:46:32Z</time></trkpt><trkpt lat="44.0526356455" lon="4.3621239625"><ele>128.47</ele><time>2015-09-27T09:46:59Z</time></trkpt><trkpt lat="44.0526235756" lon="4.3621389661"><ele>128.47</ele><time>2015-09-27T09:47:14Z</time></trkpt><trkpt lat="44.0526292752" lon="4.3621657882"><ele>128.47</ele><time>2015-09-27T09:47:38Z</time></trkpt><trkpt lat="44.0526483022" lon="4.3621776067"><ele>128.47</ele><time>2015-09-27T09:48:00Z</time></trkpt><trkpt lat="44.0526512358" lon="4.3621839769"><ele>128.47</ele><time>2015-09-27T09:48:31Z</time></trkpt><trkpt lat="44.0526372381" lon="4.3621812109"><ele>128.47</ele><time>2015-09-27T09:48:50Z</time></trkpt><trkpt lat="44.0526412614" lon="4.3621705659"><ele>128.47</ele><time>2015-09-27T09:49:19Z</time></trkpt><trkpt lat="44.0526308678" lon="4.3621614296"><ele>128.47</ele><time>2015-09-27T09:49:51Z</time></trkpt><trkpt lat="44.0526478831" lon="4.3621437438"><ele>128.47</ele><time>2015-09-27T09:50:11Z</time></trkpt><trkpt lat="44.0526669938" lon="4.3620438315"><ele>128.47</ele><time>2015-09-27T09:50:28Z</time></trkpt><trkpt lat="44.0527093224" lon="4.3618988246"><ele>128.47</ele><time>2015-09-27T09:50:44Z</time></trkpt><trkpt lat="44.0527286008" lon="4.3617208768"><ele>128.47</ele><time>2015-09-27T09:51:02Z</time></trkpt><trkpt lat="44.0527234040" lon="4.3615543284"><ele>127.51</ele><time>2015-09-27T09:51:15Z</time></trkpt><trkpt lat="44.0527089033" lon="4.3612668291"><ele>125.59</ele><time>2015-09-27T09:51:35Z</time></trkpt><trkpt lat="44.0526831709" lon="4.3609836046"><ele>123.19</ele><time>2015-09-27T09:51:55Z</time></trkpt><trkpt lat="44.0526677482" lon="4.3607433792"><ele>123.19</ele><time>2015-09-27T09:52:13Z</time></trkpt><trkpt lat="44.0526708495" lon="4.3605582230"><ele>122.71</ele><time>2015-09-27T09:52:29Z</time></trkpt><trkpt lat="44.0526281018" lon="4.3603906687"><ele>122.71</ele><time>2015-09-27T09:52:46Z</time></trkpt><trkpt lat="44.0527234878" lon="4.3603496812"><ele>122.71</ele><time>2015-09-27T09:53:04Z</time></trkpt><trkpt lat="44.0527353901" lon="4.3603501003"><ele>122.71</ele><time>2015-09-27T09:53:05Z</time></trkpt><trkpt lat="44.0529091470" lon="4.3603803590"><ele>122.22</ele><time>2015-09-27T09:53:21Z</time></trkpt><trkpt lat="44.0530994162" lon="4.3604421336"><ele>122.22</ele><time>2015-09-27T09:53:39Z</time></trkpt><trkpt lat="44.0531346202" lon="4.3604571372"><ele>122.22</ele><time>2015-09-27T09:53:42Z</time></trkpt><trkpt lat="44.0532969777" lon="4.3605282158"><ele>122.22</ele><time>2015-09-27T09:54:00Z</time></trkpt><trkpt lat="44.0534629393" lon="4.3605836201"><ele>122.22</ele><time>2015-09-27T09:54:17Z</time></trkpt><trkpt lat="44.0534871630" lon="4.3605794292"><ele>123.67</ele><time>2015-09-27T09:54:19Z</time></trkpt><trkpt lat="44.0535460040" lon="4.3605829496"><ele>124.15</ele><time>2015-09-27T09:54:35Z</time></trkpt><trkpt lat="44.0535562299" lon="4.3605659343"><ele>124.63</ele><time>2015-09-27T09:54:50Z</time></trkpt><trkpt lat="44.0536397975" lon="4.3606619071"><ele>124.63</ele><time>2015-09-27T09:55:07Z</time></trkpt><trkpt lat="44.0536432341" lon="4.3607018050"><ele>124.63</ele><time>2015-09-27T09:55:25Z</time></trkpt><trkpt lat="44.0536703914" lon="4.3607087620"><ele>124.63</ele><time>2015-09-27T09:55:44Z</time></trkpt><trkpt lat="44.0536738280" lon="4.3606709596"><ele>124.63</ele><time>2015-09-27T09:56:00Z</time></trkpt><trkpt lat="44.0536713973" lon="4.3606698699"><ele>123.67</ele><time>2015-09-27T09:56:20Z</time></trkpt><trkpt lat="44.0536385402" lon="4.3606655113"><ele>123.19</ele><time>2015-09-27T09:56:47Z</time></trkpt><trkpt lat="44.0536610875" lon="4.3606432155"><ele>123.19</ele><time>2015-09-27T09:57:17Z</time></trkpt><trkpt lat="44.0536630992" lon="4.3606640864"><ele>123.19</ele><time>2015-09-27T09:57:43Z</time></trkpt><trkpt lat="44.0536710620" lon="4.3606634997"><ele>123.19</ele><time>2015-09-27T09:58:12Z</time></trkpt><trkpt lat="44.0536655299" lon="4.3606507592"><ele>123.67</ele><time>2015-09-27T09:58:40Z</time></trkpt><trkpt lat="44.0536664519" lon="4.3606618233"><ele>123.67</ele><time>2015-09-27T09:59:03Z</time></trkpt><trkpt lat="44.0536914300" lon="4.3606501725"><ele>123.67</ele><time>2015-09-27T09:59:30Z</time></trkpt><trkpt lat="44.0537010692" lon="4.3606505916"><ele>123.67</ele><time>2015-09-27T09:59:55Z</time></trkpt><trkpt lat="44.0536596626" lon="4.3606407009"><ele>123.67</ele><time>2015-09-27T10:00:29Z</time></trkpt><trkpt lat="44.0536524542" lon="4.3606540281"><ele>123.67</ele><time>2015-09-27T10:01:00Z</time></trkpt><trkpt lat="44.0536488499" lon="4.3606531061"><ele>123.67</ele><time>2015-09-27T10:01:26Z</time></trkpt><trkpt lat="44.0536573157" lon="4.3606619909"><ele>124.15</ele><time>2015-09-27T10:02:02Z</time></trkpt><trkpt lat="44.0536531247" lon="4.3606488314"><ele>124.15</ele><time>2015-09-27T10:02:39Z</time></trkpt><trkpt lat="44.0536540467" lon="4.3606588058"><ele>124.63</ele><time>2015-09-27T10:03:15Z</time></trkpt><trkpt lat="44.0536465868" lon="4.3606810179"><ele>124.63</ele><time>2015-09-27T10:03:56Z</time></trkpt><trkpt lat="44.0536604170" lon="4.3606669363"><ele>124.63</ele><time>2015-09-27T10:04:22Z</time></trkpt><trkpt lat="44.0536687989" lon="4.3606630806"><ele>124.63</ele><time>2015-09-27T10:04:51Z</time></trkpt><trkpt lat="44.0536491014" lon="4.3606495019"><ele>125.11</ele><time>2015-09-27T10:05:22Z</time></trkpt><trkpt lat="44.0536442399" lon="4.3606322352"><ele>125.11</ele><time>2015-09-27T10:05:50Z</time></trkpt><trkpt lat="44.0536607523" lon="4.3606726360"><ele>125.11</ele><time>2015-09-27T10:06:27Z</time></trkpt><trkpt lat="44.0536467545" lon="4.3606910761"><ele>125.11</ele><time>2015-09-27T10:06:58Z</time></trkpt><trkpt lat="44.0536523703" lon="4.3606887292"><ele>125.59</ele><time>2015-09-27T10:07:33Z</time></trkpt><trkpt lat="44.0536428150" lon="4.3606766593"><ele>125.59</ele><time>2015-09-27T10:08:06Z</time></trkpt><trkpt lat="44.0536490176" lon="4.3606678583"><ele>125.59</ele><time>2015-09-27T10:08:36Z</time></trkpt><trkpt lat="44.0536521189" lon="4.3606668524"><ele>126.07</ele><time>2015-09-27T10:09:14Z</time></trkpt><trkpt lat="44.0536595788" lon="4.3606828619"><ele>126.07</ele><time>2015-09-27T10:09:47Z</time></trkpt><trkpt lat="44.0536568966" lon="4.3606952671"><ele>126.07</ele><time>2015-09-27T10:10:17Z</time></trkpt><trkpt lat="44.0536579862" lon="4.3606847897"><ele>126.07</ele><time>2015-09-27T10:10:52Z</time></trkpt><trkpt lat="44.0536702238" lon="4.3606668524"><ele>126.55</ele><time>2015-09-27T10:11:26Z</time></trkpt><trkpt lat="44.0536827128" lon="4.3606666010"><ele>126.55</ele><time>2015-09-27T10:11:58Z</time></trkpt><trkpt lat="44.0536581539" lon="4.3606521841"><ele>126.55</ele><time>2015-09-27T10:12:30Z</time></trkpt><trkpt lat="44.0536480956" lon="4.3606384378"><ele>126.55</ele><time>2015-09-27T10:13:12Z</time></trkpt><trkpt lat="44.0536535438" lon="4.3606775813"><ele>127.03</ele><time>2015-09-27T10:13:44Z</time></trkpt><trkpt lat="44.0536360256" lon="4.3606593087"><ele>127.03</ele><time>2015-09-27T10:14:16Z</time></trkpt><trkpt lat="44.0536465868" lon="4.3606817722"><ele>127.03</ele><time>2015-09-27T10:14:48Z</time></trkpt><trkpt lat="44.0536584891" lon="4.3606684450"><ele>127.03</ele><time>2015-09-27T10:15:21Z</time></trkpt><trkpt lat="44.0536472574" lon="4.3606795929"><ele>127.51</ele><time>2015-09-27T10:15:55Z</time></trkpt><trkpt lat="44.0536491014" lon="4.3606779166"><ele>127.51</ele><time>2015-09-27T10:16:23Z</time></trkpt><trkpt lat="44.0536608361" lon="4.3606461491"><ele>127.51</ele><time>2015-09-27T10:17:02Z</time></trkpt><trkpt lat="44.0536601655" lon="4.3606541958"><ele>127.51</ele><time>2015-09-27T10:17:33Z</time></trkpt><trkpt lat="44.0536656976" lon="4.3606539443"><ele>127.99</ele><time>2015-09-27T10:18:09Z</time></trkpt><trkpt lat="44.0536724031" lon="4.3606434669"><ele>127.99</ele><time>2015-09-27T10:18:44Z</time></trkpt><trkpt lat="44.0536496043" lon="4.3606411200"><ele>127.99</ele><time>2015-09-27T10:19:18Z</time></trkpt><trkpt lat="44.0536633506" lon="4.3606797606"><ele>127.99</ele><time>2015-09-27T10:19:47Z</time></trkpt><trkpt lat="44.0536698885" lon="4.3606871367"><ele>127.99</ele><time>2015-09-27T10:20:13Z</time></trkpt><trkpt lat="44.0536672063" lon="4.3606597278"><ele>127.99</ele><time>2015-09-27T10:20:44Z</time></trkpt><trkpt lat="44.0536539629" lon="4.3606448919"><ele>128.47</ele><time>2015-09-27T10:21:19Z</time></trkpt><trkpt lat="44.0536400490" lon="4.3606535252"><ele>128.47</ele><time>2015-09-27T10:21:51Z</time></trkpt><trkpt lat="44.0536436532" lon="4.3606613204"><ele>127.99</ele><time>2015-09-27T10:22:20Z</time></trkpt><trkpt lat="44.0536532924" lon="4.3606551178"><ele>128.47</ele><time>2015-09-27T10:22:49Z</time></trkpt><trkpt lat="44.0536579024" lon="4.3606671039"><ele>128.47</ele><time>2015-09-27T10:23:18Z</time></trkpt><trkpt lat="44.0536625963" lon="4.3606512621"><ele>129.43</ele><time>2015-09-27T10:23:58Z</time></trkpt><trkpt lat="44.0536649432" lon="4.3606506754"><ele>129.43</ele><time>2015-09-27T10:24:32Z</time></trkpt><trkpt lat="44.0536485147" lon="4.3606770784"><ele>129.43</ele><time>2015-09-27T10:25:09Z</time></trkpt><trkpt lat="44.0536455810" lon="4.3606731389"><ele>129.43</ele><time>2015-09-27T10:25:33Z</time></trkpt><trkpt lat="44.0536418092" lon="4.3606674392"><ele>129.43</ele><time>2015-09-27T10:26:00Z</time></trkpt><trkpt lat="44.0536353551" lon="4.3606566265"><ele>129.43</ele><time>2015-09-27T10:26:27Z</time></trkpt><trkpt lat="44.0536374506" lon="4.3606646731"><ele>129.43</ele><time>2015-09-27T10:27:01Z</time></trkpt><trkpt lat="44.0536566451" lon="4.3606599793"><ele>129.43</ele><time>2015-09-27T10:27:41Z</time></trkpt><trkpt lat="44.0536544658" lon="4.3606435508"><ele>129.92</ele><time>2015-09-27T10:28:15Z</time></trkpt><trkpt lat="44.0536386240" lon="4.3606464844"><ele>129.92</ele><time>2015-09-27T10:28:47Z</time></trkpt><trkpt lat="44.0536587406" lon="4.3606592249"><ele>129.92</ele><time>2015-09-27T10:29:13Z</time></trkpt><trkpt lat="44.0536421444" lon="4.3606477417"><ele>129.92</ele><time>2015-09-27T10:29:42Z</time></trkpt><trkpt lat="44.0536654461" lon="4.3606728874"><ele>129.92</ele><time>2015-09-27T10:30:11Z</time></trkpt><trkpt lat="44.0536647756" lon="4.3606725521"><ele>129.92</ele><time>2015-09-27T10:30:41Z</time></trkpt><trkpt lat="44.0536579024" lon="4.3606524356"><ele>129.92</ele><time>2015-09-27T10:31:15Z</time></trkpt><trkpt lat="44.0536921006" lon="4.3606552854"><ele>130.40</ele><time>2015-09-27T10:31:44Z</time></trkpt><trkpt lat="44.0536683798" lon="4.3606594764"><ele>130.40</ele><time>2015-09-27T10:32:22Z</time></trkpt><trkpt lat="44.0536538791" lon="4.3606374320"><ele>130.40</ele><time>2015-09-27T10:32:56Z</time></trkpt><trkpt lat="44.0536482632" lon="4.3606390245"><ele>130.40</ele><time>2015-09-27T10:33:28Z</time></trkpt><trkpt lat="44.0536314156" lon="4.3606614880"><ele>129.92</ele><time>2015-09-27T10:34:07Z</time></trkpt><trkpt lat="44.0536408871" lon="4.3606495019"><ele>129.92</ele><time>2015-09-27T10:34:31Z</time></trkpt><trkpt lat="44.0536488499" lon="4.3606483284"><ele>129.92</ele><time>2015-09-27T10:35:06Z</time></trkpt><trkpt lat="44.0536504425" lon="4.3606782518"><ele>129.92</ele><time>2015-09-27T10:35:43Z</time></trkpt><trkpt lat="44.0536562260" lon="4.3606860470"><ele>129.92</ele><time>2015-09-27T10:36:19Z</time></trkpt><trkpt lat="44.0536340978" lon="4.3606670201"><ele>130.40</ele><time>2015-09-27T10:36:53Z</time></trkpt><trkpt lat="44.0536491852" lon="4.3606990390"><ele>130.40</ele><time>2015-09-27T10:37:21Z</time></trkpt><trkpt lat="44.0536408033" lon="4.3606831972"><ele>130.40</ele><time>2015-09-27T10:37:55Z</time></trkpt><trkpt lat="44.0536619257" lon="4.3606665172"><ele>130.40</ele><time>2015-09-27T10:38:31Z</time></trkpt><trkpt lat="44.0536411386" lon="4.3606686965"><ele>130.40</ele><time>2015-09-27T10:39:00Z</time></trkpt><trkpt lat="44.0536169987" lon="4.3606476579"><ele>130.40</ele><time>2015-09-27T10:39:31Z</time></trkpt><trkpt lat="44.0536200162" lon="4.3606344145"><ele>130.40</ele><time>2015-09-27T10:40:00Z</time></trkpt><trkpt lat="44.0536209382" lon="4.3606495019"><ele>129.92</ele><time>2015-09-27T10:40:33Z</time></trkpt><trkpt lat="44.0536386240" lon="4.3606526032"><ele>129.92</ele><time>2015-09-27T10:41:05Z</time></trkpt><trkpt lat="44.0536422282" lon="4.3606731389"><ele>129.92</ele><time>2015-09-27T10:41:41Z</time></trkpt><trkpt lat="44.0536284819" lon="4.3606588058"><ele>129.43</ele><time>2015-09-27T10:42:18Z</time></trkpt><trkpt lat="44.0536345169" lon="4.3606401980"><ele>129.43</ele><time>2015-09-27T10:42:44Z</time></trkpt><trkpt lat="44.0536107961" lon="4.3606251106"><ele>128.95</ele><time>2015-09-27T10:43:17Z</time></trkpt><trkpt lat="44.0536209382" lon="4.3606359232"><ele>128.95</ele><time>2015-09-27T10:43:48Z</time></trkpt><trkpt lat="44.0536291525" lon="4.3606553692"><ele>128.95</ele><time>2015-09-27T10:44:25Z</time></trkpt><trkpt lat="44.0536456648" lon="4.3606613204"><ele>128.47</ele><time>2015-09-27T10:44:58Z</time></trkpt><trkpt lat="44.0536296554" lon="4.3606626615"><ele>128.47</ele><time>2015-09-27T10:45:28Z</time></trkpt><trkpt lat="44.0536399651" lon="4.3606355041"><ele>128.47</ele><time>2015-09-27T10:46:00Z</time></trkpt><trkpt lat="44.0536581539" lon="4.3606329896"><ele>127.99</ele><time>2015-09-27T10:46:36Z</time></trkpt><trkpt lat="44.0536723193" lon="4.3606191594"><ele>127.99</ele><time>2015-09-27T10:47:12Z</time></trkpt><trkpt lat="44.0536516160" lon="4.3606248591"><ele>127.51</ele><time>2015-09-27T10:47:40Z</time></trkpt><trkpt lat="44.0536455810" lon="4.3606250267"><ele>127.51</ele><time>2015-09-27T10:48:16Z</time></trkpt><trkpt lat="44.0536478441" lon="4.3606326543"><ele>127.51</ele><time>2015-09-27T10:48:42Z</time></trkpt><trkpt lat="44.0536470059" lon="4.3606455624"><ele>127.03</ele><time>2015-09-27T10:49:18Z</time></trkpt><trkpt lat="44.0536310803" lon="4.3606479932"><ele>127.03</ele><time>2015-09-27T10:49:56Z</time></trkpt><trkpt lat="44.0536427312" lon="4.3606248591"><ele>127.03</ele><time>2015-09-27T10:50:27Z</time></trkpt><trkpt lat="44.0536816232" lon="4.3606308103"><ele>127.03</ele><time>2015-09-27T10:51:14Z</time></trkpt><trkpt lat="44.0536657814" lon="4.3606303073"><ele>126.55</ele><time>2015-09-27T10:51:49Z</time></trkpt><trkpt lat="44.0536624286" lon="4.3606098555"><ele>126.55</ele><time>2015-09-27T10:52:20Z</time></trkpt><trkpt lat="44.0536667034" lon="4.3606369291"><ele>126.55</ele><time>2015-09-27T10:52:53Z</time></trkpt><trkpt lat="44.0536689665" lon="4.3606781680"><ele>126.55</ele><time>2015-09-27T10:53:29Z</time></trkpt><trkpt lat="44.0536589921" lon="4.3606774136"><ele>126.55</ele><time>2015-09-27T10:53:59Z</time></trkpt><trkpt lat="44.0536506101" lon="4.3606744800"><ele>126.55</ele><time>2015-09-27T10:54:33Z</time></trkpt><trkpt lat="44.0536524542" lon="4.3606811017"><ele>126.55</ele><time>2015-09-27T10:55:03Z</time></trkpt><trkpt lat="44.0536410548" lon="4.3606706243"><ele>126.55</ele><time>2015-09-27T10:55:33Z</time></trkpt><trkpt lat="44.0536460001" lon="4.3606699537"><ele>126.55</ele><time>2015-09-27T10:56:03Z</time></trkpt><trkpt lat="44.0536545496" lon="4.3606461491"><ele>126.07</ele><time>2015-09-27T10:56:30Z</time></trkpt><trkpt lat="44.0536521189" lon="4.3606631644"><ele>126.07</ele><time>2015-09-27T10:57:00Z</time></trkpt><trkpt lat="44.0536442399" lon="4.3606481608"><ele>126.07</ele><time>2015-09-27T10:57:30Z</time></trkpt><trkpt lat="44.0536383726" lon="4.3606565427"><ele>126.07</ele><time>2015-09-27T10:57:58Z</time></trkpt><trkpt lat="44.0536553040" lon="4.3606384378"><ele>126.07</ele><time>2015-09-27T10:58:30Z</time></trkpt><trkpt lat="44.0536599979" lon="4.3606247753"><ele>127.03</ele><time>2015-09-27T10:59:00Z</time></trkpt><trkpt lat="44.0536677931" lon="4.3606151361"><ele>127.03</ele><time>2015-09-27T10:59:20Z</time></trkpt><trkpt lat="44.0536722355" lon="4.3606047425"><ele>127.99</ele><time>2015-09-27T10:59:34Z</time></trkpt><trkpt lat="44.0536645241" lon="4.3605837878"><ele>127.03</ele><time>2015-09-27T10:59:56Z</time></trkpt><trkpt lat="44.0536708105" lon="4.3605977017"><ele>127.03</ele><time>2015-09-27T11:00:25Z</time></trkpt><trkpt lat="44.0536913462" lon="4.3606077600"><ele>127.03</ele><time>2015-09-27T11:00:54Z</time></trkpt><trkpt lat="44.0536724869" lon="4.3606463168"><ele>127.03</ele><time>2015-09-27T11:01:19Z</time></trkpt><trkpt lat="44.0536642727" lon="4.3606347498"><ele>127.03</ele><time>2015-09-27T11:01:35Z</time></trkpt><trkpt lat="44.0536600817" lon="4.3606101908"><ele>126.55</ele><time>2015-09-27T11:02:06Z</time></trkpt><trkpt lat="44.0536473412" lon="4.3606231827"><ele>126.55</ele><time>2015-09-27T11:02:27Z</time></trkpt><trkpt lat="44.0536311641" lon="4.3606409524"><ele>126.55</ele><time>2015-09-27T11:02:57Z</time></trkpt><trkpt lat="44.0536498558" lon="4.3606453110"><ele>126.55</ele><time>2015-09-27T11:03:24Z</time></trkpt><trkpt lat="44.0536413901" lon="4.3606284633"><ele>126.55</ele><time>2015-09-27T11:03:43Z</time></trkpt><trkpt lat="44.0536546335" lon="4.3606345821"><ele>127.03</ele><time>2015-09-27T11:04:17Z</time></trkpt><trkpt lat="44.0536458325" lon="4.3606446404"><ele>127.03</ele><time>2015-09-27T11:04:36Z</time></trkpt><trkpt lat="44.0536405519" lon="4.3606382702"><ele>127.03</ele><time>2015-09-27T11:04:53Z</time></trkpt><trkpt lat="44.0536787733" lon="4.3605455663"><ele>128.47</ele><time>2015-09-27T11:05:17Z</time></trkpt><trkpt lat="44.0537710581" lon="4.3604953587"><ele>128.95</ele><time>2015-09-27T11:05:30Z</time></trkpt><trkpt lat="44.0538386162" lon="4.3604885694"><ele>129.43</ele><time>2015-09-27T11:05:38Z</time></trkpt><trkpt lat="44.0539864730" lon="4.3604007270"><ele>130.40</ele><time>2015-09-27T11:05:56Z</time></trkpt><trkpt lat="44.0541187394" lon="4.3603476696"><ele>131.84</ele><time>2015-09-27T11:06:12Z</time></trkpt><trkpt lat="44.0542542748" lon="4.3603225239"><ele>132.80</ele><time>2015-09-27T11:06:28Z</time></trkpt><trkpt lat="44.0543841105" lon="4.3602990545"><ele>132.80</ele><time>2015-09-27T11:06:46Z</time></trkpt><trkpt lat="44.0544178057" lon="4.3602061830"><ele>133.76</ele><time>2015-09-27T11:06:59Z</time></trkpt><trkpt lat="44.0544123575" lon="4.3601809535"><ele>134.24</ele><time>2015-09-27T11:07:13Z</time></trkpt><trkpt lat="44.0544170514" lon="4.3601993937"><ele>134.24</ele><time>2015-09-27T11:07:29Z</time></trkpt><trkpt lat="44.0544292890" lon="4.3602180853"><ele>134.24</ele><time>2015-09-27T11:07:51Z</time></trkpt><trkpt lat="44.0544193145" lon="4.3602130562"><ele>134.24</ele><time>2015-09-27T11:08:04Z</time></trkpt><trkpt lat="44.0544021316" lon="4.3601423968"><ele>134.24</ele><time>2015-09-27T11:08:11Z</time></trkpt><trkpt lat="44.0543986112" lon="4.3601618428"><ele>134.24</ele><time>2015-09-27T11:08:25Z</time></trkpt><trkpt lat="44.0544279478" lon="4.3602941930"><ele>134.24</ele><time>2015-09-27T11:08:43Z</time></trkpt><trkpt lat="44.0544389281" lon="4.3603430595"><ele>132.80</ele><time>2015-09-27T11:08:48Z</time></trkpt><trkpt lat="44.0545106772" lon="4.3604704645"><ele>132.32</ele><time>2015-09-27T11:09:04Z</time></trkpt><trkpt lat="44.0545490663" lon="4.3604682852"><ele>132.32</ele><time>2015-09-27T11:09:08Z</time></trkpt><trkpt lat="44.0547125973" lon="4.3604699615"><ele>132.32</ele><time>2015-09-27T11:09:24Z</time></trkpt><trkpt lat="44.0547330491" lon="4.3604642618"><ele>132.32</ele><time>2015-09-27T11:09:26Z</time></trkpt><trkpt lat="44.0547493100" lon="4.3604331650"><ele>133.76</ele><time>2015-09-27T11:09:43Z</time></trkpt><trkpt lat="44.0547477175" lon="4.3603672832"><ele>133.76</ele><time>2015-09-27T11:10:04Z</time></trkpt><trkpt lat="44.0547317080" lon="4.3602542114"><ele>134.72</ele><time>2015-09-27T11:10:20Z</time></trkpt><trkpt lat="44.0547505673" lon="4.3600885011"><ele>136.64</ele><time>2015-09-27T11:10:32Z</time></trkpt><trkpt lat="44.0547420178" lon="4.3599062786"><ele>138.57</ele><time>2015-09-27T11:10:46Z</time></trkpt><trkpt lat="44.0547153633" lon="4.3597354554"><ele>140.01</ele><time>2015-09-27T11:11:00Z</time></trkpt><trkpt lat="44.0546645690" lon="4.3595250696"><ele>140.97</ele><time>2015-09-27T11:11:17Z</time></trkpt><trkpt lat="44.0546286106" lon="4.3592964951"><ele>142.89</ele><time>2015-09-27T11:11:35Z</time></trkpt><trkpt lat="44.0547239967" lon="4.3591651507"><ele>143.85</ele><time>2015-09-27T11:11:50Z</time></trkpt><trkpt lat="44.0548125096" lon="4.3590919767"><ele>144.34</ele><time>2015-09-27T11:11:59Z</time></trkpt><trkpt lat="44.0549537446" lon="4.3589735404"><ele>145.78</ele><time>2015-09-27T11:12:16Z</time></trkpt><trkpt lat="44.0551297646" lon="4.3588638213"><ele>146.74</ele><time>2015-09-27T11:12:37Z</time></trkpt><trkpt lat="44.0552917030" lon="4.3587202393"><ele>148.18</ele><time>2015-09-27T11:12:58Z</time></trkpt><trkpt lat="44.0553294215" lon="4.3586427905"><ele>148.18</ele><time>2015-09-27T11:13:16Z</time></trkpt><trkpt lat="44.0553911962" lon="4.3585399445"><ele>149.14</ele><time>2015-09-27T11:13:31Z</time></trkpt><trkpt lat="44.0553956386" lon="4.3584940117"><ele>149.62</ele><time>2015-09-27T11:13:34Z</time></trkpt><trkpt lat="44.0553794615" lon="4.3581982143"><ele>150.58</ele><time>2015-09-27T11:13:52Z</time></trkpt><trkpt lat="44.0553492866" lon="4.3579437397"><ele>151.54</ele><time>2015-09-27T11:14:08Z</time></trkpt><trkpt lat="44.0553252306" lon="4.3576603476"><ele>152.51</ele><time>2015-09-27T11:14:27Z</time></trkpt><trkpt lat="44.0552958101" lon="4.3575092219"><ele>153.47</ele><time>2015-09-27T11:14:38Z</time></trkpt><trkpt lat="44.0553134959" lon="4.3572319485"><ele>154.43</ele><time>2015-09-27T11:14:58Z</time></trkpt><trkpt lat="44.0553325228" lon="4.3569835927"><ele>155.87</ele><time>2015-09-27T11:15:16Z</time></trkpt><trkpt lat="44.0553559083" lon="4.3567485642"><ele>156.83</ele><time>2015-09-27T11:15:34Z</time></trkpt><trkpt lat="44.0553981531" lon="4.3565075845"><ele>157.79</ele><time>2015-09-27T11:15:52Z</time></trkpt><trkpt lat="44.0554556530" lon="4.3562862184"><ele>158.75</ele><time>2015-09-27T11:16:09Z</time></trkpt><trkpt lat="44.0554923657" lon="4.3560617510"><ele>159.72</ele><time>2015-09-27T11:16:26Z</time></trkpt><trkpt lat="44.0555123147" lon="4.3559200969"><ele>160.68</ele><time>2015-09-27T11:16:44Z</time></trkpt><trkpt lat="44.0554807149" lon="4.3557138182"><ele>162.12</ele><time>2015-09-27T11:16:58Z</time></trkpt><trkpt lat="44.0554422420" lon="4.3554611877"><ele>164.52</ele><time>2015-09-27T11:17:16Z</time></trkpt><trkpt lat="44.0554429125" lon="4.3554214574"><ele>164.52</ele><time>2015-09-27T11:17:19Z</time></trkpt><trkpt lat="44.0554532222" lon="4.3551862612"><ele>166.45</ele><time>2015-09-27T11:17:35Z</time></trkpt><trkpt lat="44.0554758534" lon="4.3549336307"><ele>166.93</ele><time>2015-09-27T11:17:53Z</time></trkpt><trkpt lat="44.0554902703" lon="4.3547355663"><ele>168.37</ele><time>2015-09-27T11:18:08Z</time></trkpt><trkpt lat="44.0555041842" lon="4.3545235042"><ele>169.33</ele><time>2015-09-27T11:18:24Z</time></trkpt><trkpt lat="44.0555175114" lon="4.3543090113"><ele>170.77</ele><time>2015-09-27T11:18:40Z</time></trkpt><trkpt lat="44.0555353649" lon="4.3540365994"><ele>172.21</ele><time>2015-09-27T11:18:58Z</time></trkpt><trkpt lat="44.0555583313" lon="4.3538189214"><ele>173.66</ele><time>2015-09-27T11:19:14Z</time></trkpt><trkpt lat="44.0555608459" lon="4.3537892494"><ele>173.66</ele><time>2015-09-27T11:19:16Z</time></trkpt><trkpt lat="44.0555138234" lon="4.3535645306"><ele>174.62</ele><time>2015-09-27T11:19:34Z</time></trkpt><trkpt lat="44.0555096325" lon="4.3532750197"><ele>175.58</ele><time>2015-09-27T11:19:55Z</time></trkpt><trkpt lat="44.0555463452" lon="4.3529227283"><ele>176.06</ele><time>2015-09-27T11:20:19Z</time></trkpt><trkpt lat="44.0556082036" lon="4.3525593728"><ele>177.02</ele><time>2015-09-27T11:20:44Z</time></trkpt><trkpt lat="44.0556844790" lon="4.3521541916"><ele>177.50</ele><time>2015-09-27T11:21:12Z</time></trkpt><trkpt lat="44.0557638556" lon="4.3517749105"><ele>177.50</ele><time>2015-09-27T11:21:37Z</time></trkpt><trkpt lat="44.0558159072" lon="4.3514439091"><ele>178.94</ele><time>2015-09-27T11:22:00Z</time></trkpt><trkpt lat="44.0558558889" lon="4.3512138259"><ele>180.38</ele><time>2015-09-27T11:22:19Z</time></trkpt><trkpt lat="44.0558537934" lon="4.3511921167"><ele>180.38</ele><time>2015-09-27T11:22:27Z</time></trkpt><trkpt lat="44.0558653604" lon="4.3511372991"><ele>180.87</ele><time>2015-09-27T11:22:31Z</time></trkpt><trkpt lat="44.0559517778" lon="4.3507871870"><ele>181.35</ele><time>2015-09-27T11:22:52Z</time></trkpt><trkpt lat="44.0560364351" lon="4.3504836783"><ele>181.83</ele><time>2015-09-27T11:23:11Z</time></trkpt><trkpt lat="44.0561093576" lon="4.3502052315"><ele>181.83</ele><time>2015-09-27T11:23:30Z</time></trkpt><trkpt lat="44.0561562125" lon="4.3499446381"><ele>180.38</ele><time>2015-09-27T11:23:49Z</time></trkpt><trkpt lat="44.0561475791" lon="4.3497218471"><ele>179.90</ele><time>2015-09-27T11:24:06Z</time></trkpt><trkpt lat="44.0561452322" lon="4.3495068513"><ele>179.90</ele><time>2015-09-27T11:24:22Z</time></trkpt><trkpt lat="44.0561617445" lon="4.3492256384"><ele>178.94</ele><time>2015-09-27T11:24:38Z</time></trkpt><trkpt lat="44.0562019777" lon="4.3489230517"><ele>177.98</ele><time>2015-09-27T11:24:56Z</time></trkpt><trkpt lat="44.0562490840" lon="4.3486218899"><ele>177.50</ele><time>2015-09-27T11:25:12Z</time></trkpt><trkpt lat="44.0562787559" lon="4.3482985161"><ele>176.06</ele><time>2015-09-27T11:25:30Z</time></trkpt><trkpt lat="44.0563060809" lon="4.3479784112"><ele>175.58</ele><time>2015-09-27T11:25:47Z</time></trkpt><trkpt lat="44.0563085955" lon="4.3478857074"><ele>175.58</ele><time>2015-09-27T11:25:59Z</time></trkpt><trkpt lat="44.0563277062" lon="4.3476063386"><ele>175.10</ele><time>2015-09-27T11:26:16Z</time></trkpt><trkpt lat="44.0563377645" lon="4.3473124690"><ele>175.10</ele><time>2015-09-27T11:26:34Z</time></trkpt><trkpt lat="44.0563370101" lon="4.3469932023"><ele>175.10</ele><time>2015-09-27T11:26:55Z</time></trkpt><trkpt lat="44.0563236829" lon="4.3468681443"><ele>176.06</ele><time>2015-09-27T11:27:04Z</time></trkpt><trkpt lat="44.0562930889" lon="4.3466008455"><ele>177.02</ele><time>2015-09-27T11:27:21Z</time></trkpt><trkpt lat="44.0562675241" lon="4.3463151902"><ele>177.98</ele><time>2015-09-27T11:27:39Z</time></trkpt><trkpt lat="44.0562470723" lon="4.3460487295"><ele>179.42</ele><time>2015-09-27T11:27:56Z</time></trkpt><trkpt lat="44.0562292188" lon="4.3457265291"><ele>180.87</ele><time>2015-09-27T11:28:16Z</time></trkpt><trkpt lat="44.0562213399" lon="4.3455210049"><ele>181.83</ele><time>2015-09-27T11:28:28Z</time></trkpt><trkpt lat="44.0562226810" lon="4.3451514468"><ele>183.27</ele><time>2015-09-27T11:28:50Z</time></trkpt><trkpt lat="44.0562413726" lon="4.3447488640"><ele>184.23</ele><time>2015-09-27T11:29:13Z</time></trkpt><trkpt lat="44.0562923346" lon="4.3443356361"><ele>185.19</ele><time>2015-09-27T11:29:38Z</time></trkpt><trkpt lat="44.0563179832" lon="4.3440158665"><ele>185.19</ele><time>2015-09-27T11:29:57Z</time></trkpt><trkpt lat="44.0563413687" lon="4.3438368291"><ele>185.19</ele><time>2015-09-27T11:30:11Z</time></trkpt><trkpt lat="44.0564143751" lon="4.3436529301"><ele>183.75</ele><time>2015-09-27T11:30:30Z</time></trkpt><trkpt lat="44.0564332344" lon="4.3435796723"><ele>183.75</ele><time>2015-09-27T11:30:46Z</time></trkpt><trkpt lat="44.0564295463" lon="4.3435794208"><ele>183.75</ele><time>2015-09-27T11:31:12Z</time></trkpt><trkpt lat="44.0564235114" lon="4.3435603939"><ele>183.75</ele><time>2015-09-27T11:31:33Z</time></trkpt><trkpt lat="44.0564090945" lon="4.3435447197"><ele>183.75</ele><time>2015-09-27T11:31:58Z</time></trkpt><trkpt lat="44.0564037301" lon="4.3435343262"><ele>183.75</ele><time>2015-09-27T11:32:34Z</time></trkpt><trkpt lat="44.0564088430" lon="4.3435525149"><ele>183.75</ele><time>2015-09-27T11:33:09Z</time></trkpt><trkpt lat="44.0564069990" lon="4.3435412832"><ele>183.75</ele><time>2015-09-27T11:33:45Z</time></trkpt><trkpt lat="44.0563999582" lon="4.3435392715"><ele>183.75</ele><time>2015-09-27T11:34:14Z</time></trkpt><trkpt lat="44.0563931689" lon="4.3435466476"><ele>184.23</ele><time>2015-09-27T11:34:33Z</time></trkpt><trkpt lat="44.0564023051" lon="4.3435836956"><ele>184.23</ele><time>2015-09-27T11:35:02Z</time></trkpt><trkpt lat="44.0563935880" lon="4.3435614835"><ele>184.23</ele><time>2015-09-27T11:35:37Z</time></trkpt><trkpt lat="44.0564288758" lon="4.3434908241"><ele>184.23</ele><time>2015-09-27T11:36:12Z</time></trkpt><trkpt lat="44.0565183945" lon="4.3433166482"><ele>184.23</ele><time>2015-09-27T11:36:30Z</time></trkpt><trkpt lat="44.0566357411" lon="4.3430916779"><ele>183.27</ele><time>2015-09-27T11:36:49Z</time></trkpt><trkpt lat="44.0567082446" lon="4.3428667914"><ele>183.27</ele><time>2015-09-27T11:37:06Z</time></trkpt><trkpt lat="44.0567733720" lon="4.3425387237"><ele>183.27</ele><time>2015-09-27T11:37:27Z</time></trkpt><trkpt lat="44.0568047203" lon="4.3423405755"><ele>184.71</ele><time>2015-09-27T11:37:40Z</time></trkpt><trkpt lat="44.0568248369" lon="4.3420606200"><ele>185.19</ele><time>2015-09-27T11:37:59Z</time></trkpt><trkpt lat="44.0568011999" lon="4.3418188021"><ele>183.27</ele><time>2015-09-27T11:38:19Z</time></trkpt><trkpt lat="44.0568425227" lon="4.3416112661"><ele>182.31</ele><time>2015-09-27T11:38:35Z</time></trkpt><trkpt lat="44.0570433531" lon="4.3414034788"><ele>182.31</ele><time>2015-09-27T11:38:57Z</time></trkpt><trkpt lat="44.0571985859" lon="4.3412574660"><ele>183.75</ele><time>2015-09-27T11:39:15Z</time></trkpt><trkpt lat="44.0572036989" lon="4.3412442226"><ele>183.75</ele><time>2015-09-27T11:39:16Z</time></trkpt><trkpt lat="44.0572321136" lon="4.3409722298"><ele>184.23</ele><time>2015-09-27T11:39:36Z</time></trkpt><trkpt lat="44.0572261624" lon="4.3407613412"><ele>182.31</ele><time>2015-09-27T11:39:51Z</time></trkpt><trkpt lat="44.0572140925" lon="4.3405320961"><ele>180.87</ele><time>2015-09-27T11:40:09Z</time></trkpt><trkpt lat="44.0572423395" lon="4.3402239773"><ele>179.90</ele><time>2015-09-27T11:40:27Z</time></trkpt><trkpt lat="44.0572935529" lon="4.3399509788"><ele>178.46</ele><time>2015-09-27T11:40:45Z</time></trkpt><trkpt lat="44.0573690739" lon="4.3396943249"><ele>177.02</ele><time>2015-09-27T11:41:05Z</time></trkpt><trkpt lat="44.0574513003" lon="4.3394604698"><ele>175.10</ele><time>2015-09-27T11:41:25Z</time></trkpt><trkpt lat="44.0575391427" lon="4.3392276205"><ele>173.17</ele><time>2015-09-27T11:41:44Z</time></trkpt><trkpt lat="44.0576253086" lon="4.3389990460"><ele>170.77</ele><time>2015-09-27T11:42:02Z</time></trkpt><trkpt lat="44.0576859936" lon="4.3388809450"><ele>170.29</ele><time>2015-09-27T11:42:12Z</time></trkpt><trkpt lat="44.0577694774" lon="4.3386579026"><ele>168.37</ele><time>2015-09-27T11:42:30Z</time></trkpt><trkpt lat="44.0578235406" lon="4.3384807091"><ele>167.89</ele><time>2015-09-27T11:42:43Z</time></trkpt><trkpt lat="44.0579439886" lon="4.3382807169"><ele>167.89</ele><time>2015-09-27T11:43:01Z</time></trkpt><trkpt lat="44.0579967108" lon="4.3382635340"><ele>167.89</ele><time>2015-09-27T11:43:06Z</time></trkpt><trkpt lat="44.0581626724" lon="4.3382331077"><ele>168.85</ele><time>2015-09-27T11:43:23Z</time></trkpt><trkpt lat="44.0583324060" lon="4.3381813075"><ele>169.81</ele><time>2015-09-27T11:43:40Z</time></trkpt><trkpt lat="44.0585251059" lon="4.3381716684"><ele>170.29</ele><time>2015-09-27T11:43:58Z</time></trkpt><trkpt lat="44.0587116871" lon="4.3381279986"><ele>171.25</ele><time>2015-09-27T11:44:15Z</time></trkpt><trkpt lat="44.0588846896" lon="4.3380876817"><ele>171.73</ele><time>2015-09-27T11:44:32Z</time></trkpt><trkpt lat="44.0589506552" lon="4.3380813114"><ele>172.21</ele><time>2015-09-27T11:44:38Z</time></trkpt><trkpt lat="44.0591002721" lon="4.3380719237"><ele>173.17</ele><time>2015-09-27T11:44:54Z</time></trkpt><trkpt lat="44.0592560079" lon="4.3381172698"><ele>174.14</ele><time>2015-09-27T11:45:10Z</time></trkpt><trkpt lat="44.0594065469" lon="4.3381323572"><ele>174.62</ele><time>2015-09-27T11:45:26Z</time></trkpt><trkpt lat="44.0595550742" lon="4.3382171821"><ele>175.58</ele><time>2015-09-27T11:45:41Z</time></trkpt><trkpt lat="44.0597013384" lon="4.3382433336"><ele>175.58</ele><time>2015-09-27T11:45:55Z</time></trkpt><trkpt lat="44.0598312579" lon="4.3381497916"><ele>176.54</ele><time>2015-09-27T11:46:11Z</time></trkpt><trkpt lat="44.0599379595" lon="4.3379746098"><ele>177.50</ele><time>2015-09-27T11:46:27Z</time></trkpt><trkpt lat="44.0600414760" lon="4.3377461191"><ele>177.98</ele><time>2015-09-27T11:46:46Z</time></trkpt><trkpt lat="44.0601495188" lon="4.3375505693"><ele>178.94</ele><time>2015-09-27T11:47:03Z</time></trkpt><trkpt lat="44.0601962060" lon="4.3373627309"><ele>180.38</ele><time>2015-09-27T11:47:19Z</time></trkpt><trkpt lat="44.0601970442" lon="4.3373448774"><ele>180.38</ele><time>2015-09-27T11:47:20Z</time></trkpt><trkpt lat="44.0602096170" lon="4.3371346593"><ele>181.83</ele><time>2015-09-27T11:47:35Z</time></trkpt><trkpt lat="44.0602426417" lon="4.3369194958"><ele>182.31</ele><time>2015-09-27T11:47:51Z</time></trkpt><trkpt lat="44.0602575615" lon="4.3367082719"><ele>183.27</ele><time>2015-09-27T11:48:07Z</time></trkpt><trkpt lat="44.0602615010" lon="4.3364611734"><ele>184.71</ele><time>2015-09-27T11:48:26Z</time></trkpt><trkpt lat="44.0602375288" lon="4.3362744246"><ele>185.67</ele><time>2015-09-27T11:48:42Z</time></trkpt><trkpt lat="44.0601685457" lon="4.3360999972"><ele>187.11</ele><time>2015-09-27T11:48:58Z</time></trkpt><trkpt lat="44.0600577369" lon="4.3359357119"><ele>187.59</ele><time>2015-09-27T11:49:14Z</time></trkpt><trkpt lat="44.0599450842" lon="4.3358150125"><ele>188.56</ele><time>2015-09-27T11:49:31Z</time></trkpt><trkpt lat="44.0598632768" lon="4.3356417585"><ele>189.52</ele><time>2015-09-27T11:49:47Z</time></trkpt><trkpt lat="44.0598610975" lon="4.3354227394"><ele>190.48</ele><time>2015-09-27T11:50:03Z</time></trkpt><trkpt lat="44.0599118080" lon="4.3352426123"><ele>190.96</ele><time>2015-09-27T11:50:18Z</time></trkpt><trkpt lat="44.0600110497" lon="4.3350653350"><ele>191.92</ele><time>2015-09-27T11:50:34Z</time></trkpt><trkpt lat="44.0600247961" lon="4.3350524269"><ele>191.92</ele><time>2015-09-27T11:50:36Z</time></trkpt><trkpt lat="44.0601287317" lon="4.3349378463"><ele>192.88</ele><time>2015-09-27T11:50:51Z</time></trkpt><trkpt lat="44.0602909215" lon="4.3347920012"><ele>192.88</ele><time>2015-09-27T11:51:08Z</time></trkpt><trkpt lat="44.0604288038" lon="4.3346617464"><ele>193.84</ele><time>2015-09-27T11:51:24Z</time></trkpt><trkpt lat="44.0605667699" lon="4.3345549610"><ele>194.80</ele><time>2015-09-27T11:51:41Z</time></trkpt><trkpt lat="44.0607351623" lon="4.3344801944"><ele>195.77</ele><time>2015-09-27T11:51:57Z</time></trkpt><trkpt lat="44.0608894732" lon="4.3344978802"><ele>196.73</ele><time>2015-09-27T11:52:14Z</time></trkpt><trkpt lat="44.0610248409" lon="4.3345920928"><ele>197.69</ele><time>2015-09-27T11:52:29Z</time></trkpt><trkpt lat="44.0611395892" lon="4.3346969504"><ele>198.17</ele><time>2015-09-27T11:52:44Z</time></trkpt><trkpt lat="44.0612793155" lon="4.3347319867"><ele>199.13</ele><time>2015-09-27T11:52:59Z</time></trkpt><trkpt lat="44.0614327043" lon="4.3347578868"><ele>199.61</ele><time>2015-09-27T11:53:16Z</time></trkpt><trkpt lat="44.0615556668" lon="4.3347798474"><ele>200.09</ele><time>2015-09-27T11:53:29Z</time></trkpt><trkpt lat="44.0617520548" lon="4.3348796759"><ele>201.05</ele><time>2015-09-27T11:53:48Z</time></trkpt><trkpt lat="44.0619061980" lon="4.3349678535"><ele>202.01</ele><time>2015-09-27T11:54:05Z</time></trkpt><trkpt lat="44.0620649513" lon="4.3350025546"><ele>202.98</ele><time>2015-09-27T11:54:22Z</time></trkpt><trkpt lat="44.0622422285" lon="4.3350596353"><ele>203.46</ele><time>2015-09-27T11:54:41Z</time></trkpt><trkpt lat="44.0623827931" lon="4.3351245113"><ele>204.42</ele><time>2015-09-27T11:54:57Z</time></trkpt><trkpt lat="44.0625480004" lon="4.3351954222"><ele>205.38</ele><time>2015-09-27T11:55:14Z</time></trkpt><trkpt lat="44.0627079271" lon="4.3353055604"><ele>205.38</ele><time>2015-09-27T11:55:30Z</time></trkpt><trkpt lat="44.0628528502" lon="4.3354124296"><ele>205.86</ele><time>2015-09-27T11:55:47Z</time></trkpt><trkpt lat="44.0629729629" lon="4.3355452828"><ele>206.82</ele><time>2015-09-27T11:56:04Z</time></trkpt><trkpt lat="44.0630917344" lon="4.3356557563"><ele>207.78</ele><time>2015-09-27T11:56:19Z</time></trkpt><trkpt lat="44.0632422734" lon="4.3358097319"><ele>208.26</ele><time>2015-09-27T11:56:37Z</time></trkpt><trkpt lat="44.0633689240" lon="4.3359033577"><ele>208.26</ele><time>2015-09-27T11:56:52Z</time></trkpt><trkpt lat="44.0635814052" lon="4.3360412400"><ele>209.22</ele><time>2015-09-27T11:57:09Z</time></trkpt><trkpt lat="44.0636939742" lon="4.3361376319"><ele>208.74</ele><time>2015-09-27T11:57:25Z</time></trkpt><trkpt lat="44.0638537332" lon="4.3362143263"><ele>209.70</ele><time>2015-09-27T11:57:43Z</time></trkpt><trkpt lat="44.0640248917" lon="4.3363235425"><ele>210.19</ele><time>2015-09-27T11:58:01Z</time></trkpt><trkpt lat="44.0642228723" lon="4.3363664579"><ele>211.63</ele><time>2015-09-27T11:58:21Z</time></trkpt><trkpt lat="44.0644052625" lon="4.3365443218"><ele>212.59</ele><time>2015-09-27T11:58:41Z</time></trkpt><trkpt lat="44.0645827912" lon="4.3366713077"><ele>213.55</ele><time>2015-09-27T11:59:01Z</time></trkpt><trkpt lat="44.0647407901" lon="4.3367581442"><ele>214.03</ele><time>2015-09-27T11:59:18Z</time></trkpt><trkpt lat="44.0649121162" lon="4.3368852139"><ele>214.99</ele><time>2015-09-27T11:59:37Z</time></trkpt><trkpt lat="44.0650954284" lon="4.3370574620"><ele>215.47</ele><time>2015-09-27T11:59:56Z</time></trkpt><trkpt lat="44.0652931575" lon="4.3371514231"><ele>216.43</ele><time>2015-09-27T12:00:15Z</time></trkpt><trkpt lat="44.0654859412" lon="4.3371816818"><ele>216.91</ele><time>2015-09-27T12:00:35Z</time></trkpt><trkpt lat="44.0656721871" lon="4.3373215757"><ele>216.91</ele><time>2015-09-27T12:00:54Z</time></trkpt><trkpt lat="44.0656936448" lon="4.3373366632"><ele>216.91</ele><time>2015-09-27T12:00:56Z</time></trkpt><trkpt lat="44.0657452773" lon="4.3373708613"><ele>215.95</ele><time>2015-09-27T12:01:01Z</time></trkpt><trkpt lat="44.0658082254" lon="4.3375888746"><ele>215.95</ele><time>2015-09-27T12:01:20Z</time></trkpt><trkpt lat="44.0658346284" lon="4.3376017828"><ele>215.95</ele><time>2015-09-27T12:01:50Z</time></trkpt><trkpt lat="44.0658273362" lon="4.3376043811"><ele>215.95</ele><time>2015-09-27T12:02:19Z</time></trkpt><trkpt lat="44.0658148471" lon="4.3375796545"><ele>215.95</ele><time>2015-09-27T12:02:47Z</time></trkpt><trkpt lat="44.0658140089" lon="4.3375647347"><ele>215.95</ele><time>2015-09-27T12:03:16Z</time></trkpt><trkpt lat="44.0658438485" lon="4.3375716917"><ele>215.47</ele><time>2015-09-27T12:03:34Z</time></trkpt><trkpt lat="44.0658561699" lon="4.3375697639"><ele>215.47</ele><time>2015-09-27T12:04:04Z</time></trkpt><trkpt lat="44.0658606123" lon="4.3375689257"><ele>215.47</ele><time>2015-09-27T12:04:32Z</time></trkpt><trkpt lat="44.0658433456" lon="4.3375749607"><ele>215.95</ele><time>2015-09-27T12:05:06Z</time></trkpt><trkpt lat="44.0658352990" lon="4.3375611305"><ele>215.95</ele><time>2015-09-27T12:05:40Z</time></trkpt><trkpt lat="44.0658115782" lon="4.3375380803"><ele>216.43</ele><time>2015-09-27T12:06:05Z</time></trkpt><trkpt lat="44.0658210497" lon="4.3375399243"><ele>216.43</ele><time>2015-09-27T12:06:42Z</time></trkpt><trkpt lat="44.0658130031" lon="4.3375455402"><ele>216.43</ele><time>2015-09-27T12:07:13Z</time></trkpt><trkpt lat="44.0658201277" lon="4.3375598732"><ele>218.36</ele><time>2015-09-27T12:07:32Z</time></trkpt><trkpt lat="44.0658240672" lon="4.3375738710"><ele>218.84</ele><time>2015-09-27T12:07:48Z</time></trkpt><trkpt lat="44.0659101494" lon="4.3376423512"><ele>217.88</ele><time>2015-09-27T12:08:03Z</time></trkpt><trkpt lat="44.0660363808" lon="4.3377860170"><ele>217.40</ele><time>2015-09-27T12:08:19Z</time></trkpt><trkpt lat="44.0661764424" lon="4.3379709218"><ele>217.40</ele><time>2015-09-27T12:08:36Z</time></trkpt><trkpt lat="44.0663239639" lon="4.3381896056"><ele>216.91</ele><time>2015-09-27T12:08:55Z</time></trkpt><trkpt lat="44.0664645284" lon="4.3383729178"><ele>216.43</ele><time>2015-09-27T12:09:12Z</time></trkpt><trkpt lat="44.0666186716" lon="4.3385665398"><ele>216.43</ele><time>2015-09-27T12:09:33Z</time></trkpt><trkpt lat="44.0667521115" lon="4.3387103733"><ele>216.43</ele><time>2015-09-27T12:09:50Z</time></trkpt><trkpt lat="44.0668827854" lon="4.3388938531"><ele>216.43</ele><time>2015-09-27T12:10:09Z</time></trkpt><trkpt lat="44.0670131240" lon="4.3390774168"><ele>215.95</ele><time>2015-09-27T12:10:26Z</time></trkpt><trkpt lat="44.0671198256" lon="4.3393100146"><ele>215.95</ele><time>2015-09-27T12:10:45Z</time></trkpt><trkpt lat="44.0671447199" lon="4.3393686041"><ele>215.95</ele><time>2015-09-27T12:10:50Z</time></trkpt><trkpt lat="44.0672722086" lon="4.3395894673"><ele>216.91</ele><time>2015-09-27T12:11:08Z</time></trkpt><trkpt lat="44.0673245117" lon="4.3396809977"><ele>216.91</ele><time>2015-09-27T12:11:16Z</time></trkpt><trkpt lat="44.0673399344" lon="4.3397382461"><ele>216.91</ele><time>2015-09-27T12:11:20Z</time></trkpt><trkpt lat="44.0673474781" lon="4.3400166929"><ele>216.91</ele><time>2015-09-27T12:11:40Z</time></trkpt><trkpt lat="44.0673533455" lon="4.3402851652"><ele>217.40</ele><time>2015-09-27T12:11:57Z</time></trkpt><trkpt lat="44.0673603024" lon="4.3404699024"><ele>218.84</ele><time>2015-09-27T12:12:10Z</time></trkpt><trkpt lat="44.0673563629" lon="4.3405564874"><ele>218.84</ele><time>2015-09-27T12:12:16Z</time></trkpt><trkpt lat="44.0673470590" lon="4.3408029154"><ele>220.28</ele><time>2015-09-27T12:12:32Z</time></trkpt><trkpt lat="44.0674112644" lon="4.3410267122"><ele>221.24</ele><time>2015-09-27T12:12:48Z</time></trkpt><trkpt lat="44.0674928203" lon="4.3412250280"><ele>222.20</ele><time>2015-09-27T12:13:03Z</time></trkpt><trkpt lat="44.0675638150" lon="4.3413768243"><ele>222.20</ele><time>2015-09-27T12:13:16Z</time></trkpt><trkpt lat="44.0675690956" lon="4.3414037302"><ele>222.68</ele><time>2015-09-27T12:13:18Z</time></trkpt><trkpt lat="44.0675591212" lon="4.3415422831"><ele>223.16</ele><time>2015-09-27T12:13:28Z</time></trkpt><trkpt lat="44.0675389208" lon="4.3416148704"><ele>223.64</ele><time>2015-09-27T12:13:35Z</time></trkpt><trkpt lat="44.0675325505" lon="4.3418082409"><ele>225.09</ele><time>2015-09-27T12:13:51Z</time></trkpt><trkpt lat="44.0675752982" lon="4.3419674970"><ele>226.05</ele><time>2015-09-27T12:14:05Z</time></trkpt><trkpt lat="44.0675930679" lon="4.3420192134"><ele>227.01</ele><time>2015-09-27T12:14:10Z</time></trkpt><trkpt lat="44.0676503163" lon="4.3421762064"><ele>227.97</ele><time>2015-09-27T12:14:24Z</time></trkpt><trkpt lat="44.0676965006" lon="4.3422974087"><ele>229.41</ele><time>2015-09-27T12:14:36Z</time></trkpt><trkpt lat="44.0677159466" lon="4.3424946349"><ele>231.33</ele><time>2015-09-27T12:14:51Z</time></trkpt><trkpt lat="44.0677405056" lon="4.3426534720"><ele>232.78</ele><time>2015-09-27T12:15:05Z</time></trkpt><trkpt lat="44.0677856002" lon="4.3428351078"><ele>234.70</ele><time>2015-09-27T12:15:20Z</time></trkpt><trkpt lat="44.0678019449" lon="4.3429118022"><ele>235.66</ele><time>2015-09-27T12:15:26Z</time></trkpt><trkpt lat="44.0678565949" lon="4.3431117106"><ele>236.62</ele><time>2015-09-27T12:15:42Z</time></trkpt><trkpt lat="44.0678696707" lon="4.3431495968"><ele>236.62</ele><time>2015-09-27T12:15:45Z</time></trkpt><trkpt lat="44.0679169446" lon="4.3433250301"><ele>237.58</ele><time>2015-09-27T12:15:57Z</time></trkpt><trkpt lat="44.0679620393" lon="4.3435958494"><ele>238.06</ele><time>2015-09-27T12:16:16Z</time></trkpt><trkpt lat="44.0679888614" lon="4.3437943328"><ele>238.54</ele><time>2015-09-27T12:16:32Z</time></trkpt><trkpt lat="44.0679757018" lon="4.3439399265"><ele>237.10</ele><time>2015-09-27T12:16:43Z</time></trkpt><trkpt lat="44.0679609496" lon="4.3441374041"><ele>235.18</ele><time>2015-09-27T12:17:00Z</time></trkpt><trkpt lat="44.0679447725" lon="4.3443152681"><ele>233.26</ele><time>2015-09-27T12:17:17Z</time></trkpt><trkpt lat="44.0679305233" lon="4.3445049506"><ele>231.33</ele><time>2015-09-27T12:17:32Z</time></trkpt><trkpt lat="44.0679266676" lon="4.3446747679"><ele>229.41</ele><time>2015-09-27T12:17:46Z</time></trkpt><trkpt lat="44.0679479577" lon="4.3448591698"><ele>227.49</ele><time>2015-09-27T12:18:01Z</time></trkpt><trkpt lat="44.0679614525" lon="4.3449547235"><ele>226.53</ele><time>2015-09-27T12:18:16Z</time></trkpt><trkpt lat="44.0679819882" lon="4.3450710643"><ele>225.57</ele><time>2015-09-27T12:18:31Z</time></trkpt><trkpt lat="44.0680693276" lon="4.3452249561"><ele>225.09</ele><time>2015-09-27T12:18:48Z</time></trkpt><trkpt lat="44.0680749435" lon="4.3453233596"><ele>224.12</ele><time>2015-09-27T12:19:12Z</time></trkpt><trkpt lat="44.0680810623" lon="4.3455200829"><ele>222.20</ele><time>2015-09-27T12:19:29Z</time></trkpt><trkpt lat="44.0680771228" lon="4.3456930015"><ele>221.24</ele><time>2015-09-27T12:19:45Z</time></trkpt><trkpt lat="44.0681057889" lon="4.3457562011"><ele>220.76</ele><time>2015-09-27T12:19:52Z</time></trkpt><trkpt lat="44.0681176074" lon="4.3459438719"><ele>218.84</ele><time>2015-09-27T12:20:06Z</time></trkpt><trkpt lat="44.0681494586" lon="4.3461384159"><ele>217.40</ele><time>2015-09-27T12:20:24Z</time></trkpt><trkpt lat="44.0682160109" lon="4.3463326246"><ele>215.47</ele><time>2015-09-27T12:20:43Z</time></trkpt><trkpt lat="44.0682906937" lon="4.3466414977"><ele>212.59</ele><time>2015-09-27T12:20:59Z</time></trkpt><trkpt lat="44.0683249757" lon="4.3468488660"><ele>211.15</ele><time>2015-09-27T12:21:06Z</time></trkpt><trkpt lat="44.0683497861" lon="4.3473188393"><ele>208.74</ele><time>2015-09-27T12:21:22Z</time></trkpt><trkpt lat="44.0683704056" lon="4.3477975298"><ele>207.30</ele><time>2015-09-27T12:21:39Z</time></trkpt><trkpt lat="44.0683891810" lon="4.3478554487"><ele>206.82</ele><time>2015-09-27T12:21:55Z</time></trkpt><trkpt lat="44.0683971439" lon="4.3478584662"><ele>206.34</ele><time>2015-09-27T12:22:25Z</time></trkpt><trkpt lat="44.0683765244" lon="4.3479785789"><ele>206.34</ele><time>2015-09-27T12:22:34Z</time></trkpt><trkpt lat="44.0683776140" lon="4.3480421975"><ele>205.86</ele><time>2015-09-27T12:22:38Z</time></trkpt><trkpt lat="44.0683780331" lon="4.3481525872"><ele>205.38</ele><time>2015-09-27T12:22:46Z</time></trkpt><trkpt lat="44.0684123989" lon="4.3482462969"><ele>204.42</ele><time>2015-09-27T12:22:54Z</time></trkpt><trkpt lat="44.0685348585" lon="4.3483498972"><ele>202.49</ele><time>2015-09-27T12:23:09Z</time></trkpt><trkpt lat="44.0686325915" lon="4.3484809902"><ele>201.05</ele><time>2015-09-27T12:23:24Z</time></trkpt><trkpt lat="44.0687262174" lon="4.3486251589"><ele>200.09</ele><time>2015-09-27T12:23:39Z</time></trkpt><trkpt lat="44.0687979665" lon="4.3488284200"><ele>197.69</ele><time>2015-09-27T12:23:57Z</time></trkpt><trkpt lat="44.0688320808" lon="4.3490186054"><ele>196.73</ele><time>2015-09-27T12:24:15Z</time></trkpt><trkpt lat="44.0689772554" lon="4.3492527958"><ele>194.80</ele><time>2015-09-27T12:24:37Z</time></trkpt><trkpt lat="44.0690171532" lon="4.3495307397"><ele>193.36</ele><time>2015-09-27T12:24:59Z</time></trkpt><trkpt lat="44.0690718871" lon="4.3498759065"><ele>191.92</ele><time>2015-09-27T12:25:23Z</time></trkpt><trkpt lat="44.0690953564" lon="4.3499826919"><ele>191.92</ele><time>2015-09-27T12:25:31Z</time></trkpt><trkpt lat="44.0691125393" lon="4.3500217516"><ele>191.92</ele><time>2015-09-27T12:25:33Z</time></trkpt><trkpt lat="44.0691914130" lon="4.3502677605"><ele>191.44</ele><time>2015-09-27T12:25:52Z</time></trkpt><trkpt lat="44.0692233481" lon="4.3505810760"><ele>190.00</ele><time>2015-09-27T12:26:14Z</time></trkpt><trkpt lat="44.0692177322" lon="4.3508801423"><ele>188.08</ele><time>2015-09-27T12:26:36Z</time></trkpt><trkpt lat="44.0691963583" lon="4.3511994090"><ele>186.15</ele><time>2015-09-27T12:27:01Z</time></trkpt><trkpt lat="44.0692082606" lon="4.3515369482"><ele>185.19</ele><time>2015-09-27T12:27:25Z</time></trkpt><trkpt lat="44.0692307241" lon="4.3518179934"><ele>184.71</ele><time>2015-09-27T12:27:44Z</time></trkpt><trkpt lat="44.0692313109" lon="4.3520200811"><ele>184.71</ele><time>2015-09-27T12:28:00Z</time></trkpt><trkpt lat="44.0692355856" lon="4.3522402737"><ele>183.75</ele><time>2015-09-27T12:28:17Z</time></trkpt><trkpt lat="44.0692131221" lon="4.3524704408"><ele>183.27</ele><time>2015-09-27T12:28:33Z</time></trkpt><trkpt lat="44.0691967774" lon="4.3527496420"><ele>182.79</ele><time>2015-09-27T12:28:52Z</time></trkpt><trkpt lat="44.0692100208" lon="4.3530373089"><ele>181.35</ele><time>2015-09-27T12:29:12Z</time></trkpt><trkpt lat="44.0692352504" lon="4.3532833178"><ele>180.87</ele><time>2015-09-27T12:29:29Z</time></trkpt><trkpt lat="44.0692762379" lon="4.3534698151"><ele>180.38</ele><time>2015-09-27T12:29:41Z</time></trkpt><trkpt lat="44.0693359170" lon="4.3537304923"><ele>179.90</ele><time>2015-09-27T12:29:59Z</time></trkpt><trkpt lat="44.0693841130" lon="4.3539946899"><ele>179.42</ele><time>2015-09-27T12:30:16Z</time></trkpt><trkpt lat="44.0694321413" lon="4.3542246055"><ele>178.94</ele><time>2015-09-27T12:30:31Z</time></trkpt><trkpt lat="44.0694622323" lon="4.3544794153"><ele>178.46</ele><time>2015-09-27T12:30:47Z</time></trkpt><trkpt lat="44.0695367474" lon="4.3547491450"><ele>178.46</ele><time>2015-09-27T12:31:06Z</time></trkpt><trkpt lat="44.0696309600" lon="4.3549665716"><ele>178.46</ele><time>2015-09-27T12:31:23Z</time></trkpt><trkpt lat="44.0697681718" lon="4.3551652227"><ele>177.98</ele><time>2015-09-27T12:31:41Z</time></trkpt><trkpt lat="44.0698119253" lon="4.3552290089"><ele>177.50</ele><time>2015-09-27T12:31:47Z</time></trkpt><trkpt lat="44.0698185470" lon="4.3553035241"><ele>176.54</ele><time>2015-09-27T12:32:04Z</time></trkpt><trkpt lat="44.0698410943" lon="4.3553957250"><ele>176.06</ele><time>2015-09-27T12:32:23Z</time></trkpt><trkpt lat="44.0698762983" lon="4.3556124810"><ele>175.10</ele><time>2015-09-27T12:32:39Z</time></trkpt><trkpt lat="44.0699240752" lon="4.3558808696"><ele>174.62</ele><time>2015-09-27T12:32:57Z</time></trkpt><trkpt lat="44.0699622128" lon="4.3560000602"><ele>174.14</ele><time>2015-09-27T12:33:05Z</time></trkpt><trkpt lat="44.0700182039" lon="4.3562986236"><ele>172.21</ele><time>2015-09-27T12:33:23Z</time></trkpt><trkpt lat="44.0700641368" lon="4.3565444648"><ele>170.77</ele><time>2015-09-27T12:33:39Z</time></trkpt><trkpt lat="44.0700877737" lon="4.3566307984"><ele>170.77</ele><time>2015-09-27T12:33:45Z</time></trkpt><trkpt lat="44.0702399891" lon="4.3566738814"><ele>170.29</ele><time>2015-09-27T12:34:03Z</time></trkpt><trkpt lat="44.0704074595" lon="4.3567360751"><ele>168.85</ele><time>2015-09-27T12:34:23Z</time></trkpt><trkpt lat="44.0704812203" lon="4.3568732031"><ele>168.85</ele><time>2015-09-27T12:34:35Z</time></trkpt><trkpt lat="44.0705055278" lon="4.3570815772"><ele>168.37</ele><time>2015-09-27T12:34:49Z</time></trkpt><trkpt lat="44.0705123171" lon="4.3571378198"><ele>168.37</ele><time>2015-09-27T12:34:54Z</time></trkpt><trkpt lat="44.0705223754" lon="4.3572974950"><ele>167.41</ele><time>2015-09-27T12:35:09Z</time></trkpt><trkpt lat="44.0705421567" lon="4.3574602716"><ele>166.93</ele><time>2015-09-27T12:35:22Z</time></trkpt><trkpt lat="44.0705486946" lon="4.3576816376"><ele>166.45</ele><time>2015-09-27T12:35:39Z</time></trkpt><trkpt lat="44.0705461800" lon="4.3576948810"><ele>166.45</ele><time>2015-09-27T12:35:40Z</time></trkpt><trkpt lat="44.0705389716" lon="4.3579934444"><ele>165.96</ele><time>2015-09-27T12:36:01Z</time></trkpt><trkpt lat="44.0705417376" lon="4.3582800217"><ele>165.48</ele><time>2015-09-27T12:36:19Z</time></trkpt><trkpt lat="44.0705905203" lon="4.3585928343"><ele>165.48</ele><time>2015-09-27T12:36:40Z</time></trkpt><trkpt lat="44.0706425719" lon="4.3588750530"><ele>165.48</ele><time>2015-09-27T12:36:59Z</time></trkpt><trkpt lat="44.0706956293" lon="4.3591716886"><ele>164.52</ele><time>2015-09-27T12:37:19Z</time></trkpt><trkpt lat="44.0707342699" lon="4.3594232295"><ele>163.56</ele><time>2015-09-27T12:37:36Z</time></trkpt><trkpt lat="44.0707653668" lon="4.3597336952"><ele>163.08</ele><time>2015-09-27T12:37:56Z</time></trkpt><trkpt lat="44.0707934462" lon="4.3600318395"><ele>162.12</ele><time>2015-09-27T12:38:15Z</time></trkpt><trkpt lat="44.0708391275" lon="4.3603845499"><ele>161.16</ele><time>2015-09-27T12:38:36Z</time></trkpt><trkpt lat="44.0709079430" lon="4.3607096840"><ele>159.72</ele><time>2015-09-27T12:38:57Z</time></trkpt><trkpt lat="44.0710137226" lon="4.3609849457"><ele>158.75</ele><time>2015-09-27T12:39:16Z</time></trkpt><trkpt lat="44.0711894073" lon="4.3612372410"><ele>157.31</ele><time>2015-09-27T12:39:39Z</time></trkpt><trkpt lat="44.0712384414" lon="4.3612793181"><ele>156.83</ele><time>2015-09-27T12:39:55Z</time></trkpt><trkpt lat="44.0712495893" lon="4.3613208923"><ele>156.83</ele><time>2015-09-27T12:40:00Z</time></trkpt><trkpt lat="44.0712223481" lon="4.3614014424"><ele>156.35</ele><time>2015-09-27T12:40:13Z</time></trkpt><trkpt lat="44.0712168999" lon="4.3614040408"><ele>156.35</ele><time>2015-09-27T12:40:16Z</time></trkpt><trkpt lat="44.0711784270" lon="4.3614421785"><ele>156.35</ele><time>2015-09-27T12:40:22Z</time></trkpt><trkpt lat="44.0709975455" lon="4.3616170250"><ele>156.35</ele><time>2015-09-27T12:40:43Z</time></trkpt><trkpt lat="44.0709594917" lon="4.3616401590"><ele>156.35</ele><time>2015-09-27T12:40:47Z</time></trkpt><trkpt lat="44.0708071925" lon="4.3616854213"><ele>155.39</ele><time>2015-09-27T12:41:02Z</time></trkpt><trkpt lat="44.0706326813" lon="4.3617211282"><ele>154.91</ele><time>2015-09-27T12:41:18Z</time></trkpt><trkpt lat="44.0704924520" lon="4.3617046997"><ele>154.91</ele><time>2015-09-27T12:41:37Z</time></trkpt><trkpt lat="44.0704812203" lon="4.3617008440"><ele>154.43</ele><time>2015-09-27T12:42:03Z</time></trkpt><trkpt lat="44.0704806335" lon="4.3616959825"><ele>154.43</ele><time>2015-09-27T12:42:23Z</time></trkpt><trkpt lat="44.0704587568" lon="4.3616840802"><ele>154.43</ele><time>2015-09-27T12:42:44Z</time></trkpt><trkpt lat="44.0704550687" lon="4.3616805598"><ele>154.43</ele><time>2015-09-27T12:43:07Z</time></trkpt><trkpt lat="44.0704461839" lon="4.3616776261"><ele>154.43</ele><time>2015-09-27T12:43:30Z</time></trkpt><trkpt lat="44.0704539791" lon="4.3616679031"><ele>154.43</ele><time>2015-09-27T12:43:55Z</time></trkpt><trkpt lat="44.0704493690" lon="4.3616604432"><ele>155.87</ele><time>2015-09-27T12:44:01Z</time></trkpt><trkpt lat="44.0704790410" lon="4.3616645504"><ele>156.35</ele><time>2015-09-27T12:44:27Z</time></trkpt><trkpt lat="44.0704182722" lon="4.3616643827"><ele>156.35</ele><time>2015-09-27T12:44:49Z</time></trkpt><trkpt lat="44.0701954812" lon="4.3616786320"><ele>155.39</ele><time>2015-09-27T12:45:09Z</time></trkpt><trkpt lat="44.0699847601" lon="4.3616716750"><ele>154.91</ele><time>2015-09-27T12:45:27Z</time></trkpt><trkpt lat="44.0698211454" lon="4.3616685737"><ele>154.91</ele><time>2015-09-27T12:45:42Z</time></trkpt><trkpt lat="44.0696383361" lon="4.3616264965"><ele>155.39</ele><time>2015-09-27T12:45:59Z</time></trkpt><trkpt lat="44.0694520902" lon="4.3616237305"><ele>155.39</ele><time>2015-09-27T12:46:16Z</time></trkpt><trkpt lat="44.0692621563" lon="4.3616485409"><ele>155.39</ele><time>2015-09-27T12:46:34Z</time></trkpt><trkpt lat="44.0690807719" lon="4.3617109861"><ele>155.39</ele><time>2015-09-27T12:46:50Z</time></trkpt><trkpt lat="44.0688840486" lon="4.3618293386"><ele>155.39</ele><time>2015-09-27T12:47:09Z</time></trkpt><trkpt lat="44.0686884988" lon="4.3619592581"><ele>155.39</ele><time>2015-09-27T12:47:28Z</time></trkpt><trkpt lat="44.0685455874" lon="4.3620859087"><ele>154.91</ele><time>2015-09-27T12:47:45Z</time></trkpt><trkpt lat="44.0685662907" lon="4.3621652015"><ele>154.43</ele><time>2015-09-27T12:47:55Z</time></trkpt><trkpt lat="44.0686678793" lon="4.3621492758"><ele>153.95</ele><time>2015-09-27T12:48:10Z</time></trkpt><trkpt lat="44.0687179193" lon="4.3621959630"><ele>153.47</ele><time>2015-09-27T12:48:34Z</time></trkpt><trkpt lat="44.0686848946" lon="4.3622263893"><ele>153.47</ele><time>2015-09-27T12:48:54Z</time></trkpt><trkpt lat="44.0687223617" lon="4.3622527085"><ele>152.99</ele><time>2015-09-27T12:49:09Z</time></trkpt><trkpt lat="44.0687723178" lon="4.3622610066"><ele>154.43</ele><time>2015-09-27T12:49:29Z</time></trkpt><trkpt lat="44.0687913448" lon="4.3622298259"><ele>154.43</ele><time>2015-09-27T12:49:46Z</time></trkpt><trkpt lat="44.0688498504" lon="4.3622508645"><ele>154.43</ele><time>2015-09-27T12:50:03Z</time></trkpt><trkpt lat="44.0689591505" lon="4.3623315822"><ele>154.91</ele><time>2015-09-27T12:50:20Z</time></trkpt><trkpt lat="44.0689775907" lon="4.3623937760"><ele>154.91</ele><time>2015-09-27T12:50:35Z</time></trkpt><trkpt lat="44.0689884033" lon="4.3624014035"><ele>154.43</ele><time>2015-09-27T12:50:59Z</time></trkpt><trkpt lat="44.0689851344" lon="4.3624181673"><ele>154.43</ele><time>2015-09-27T12:51:31Z</time></trkpt><trkpt lat="44.0689929295" lon="4.3623978831"><ele>154.91</ele><time>2015-09-27T12:52:06Z</time></trkpt><trkpt lat="44.0689888224" lon="4.3624231126"><ele>154.91</ele><time>2015-09-27T12:52:42Z</time></trkpt><trkpt lat="44.0689798538" lon="4.3624230288"><ele>154.91</ele><time>2015-09-27T12:53:16Z</time></trkpt><trkpt lat="44.0689876489" lon="4.3623876572"><ele>154.91</ele><time>2015-09-27T12:53:51Z</time></trkpt><trkpt lat="44.0689883195" lon="4.3623719830"><ele>154.91</ele><time>2015-09-27T12:54:06Z</time></trkpt><trkpt lat="44.0690007247" lon="4.3623531237"><ele>154.91</ele><time>2015-09-27T12:54:09Z</time></trkpt><trkpt lat="44.0689964499" lon="4.3623355217"><ele>153.47</ele><time>2015-09-27T12:54:17Z</time></trkpt><trkpt lat="44.0690102801" lon="4.3623257987"><ele>153.47</ele><time>2015-09-27T12:54:48Z</time></trkpt><trkpt lat="44.0690235235" lon="4.3623329233"><ele>153.47</ele><time>2015-09-27T12:55:19Z</time></trkpt><trkpt lat="44.0689899959" lon="4.3623160757"><ele>153.95</ele><time>2015-09-27T12:55:49Z</time></trkpt><trkpt lat="44.0689854696" lon="4.3623381201"><ele>153.95</ele><time>2015-09-27T12:56:22Z</time></trkpt><trkpt lat="44.0689795185" lon="4.3623164110"><ele>155.39</ele><time>2015-09-27T12:56:42Z</time></trkpt><trkpt lat="44.0689800214" lon="4.3623144832"><ele>155.39</ele><time>2015-09-27T12:56:43Z</time></trkpt><trkpt lat="44.0690007247" lon="4.3622962106"><ele>155.39</ele><time>2015-09-27T12:57:03Z</time></trkpt><trkpt lat="44.0689955279" lon="4.3622931931"><ele>155.87</ele><time>2015-09-27T12:57:23Z</time></trkpt><trkpt lat="44.0689994674" lon="4.3622808717"><ele>156.35</ele><time>2015-09-27T12:57:58Z</time></trkpt><trkpt lat="44.0689657722" lon="4.3623284809"><ele>156.35</ele><time>2015-09-27T12:58:10Z</time></trkpt><trkpt lat="44.0689559653" lon="4.3623895850"><ele>156.83</ele><time>2015-09-27T12:58:25Z</time></trkpt><trkpt lat="44.0689691249" lon="4.3624240346"><ele>156.83</ele><time>2015-09-27T12:58:47Z</time></trkpt><trkpt lat="44.0689649340" lon="4.3624386191"><ele>156.83</ele><time>2015-09-27T12:59:10Z</time></trkpt><trkpt lat="44.0689851344" lon="4.3624402955"><ele>156.83</ele><time>2015-09-27T12:59:31Z</time></trkpt><trkpt lat="44.0689831227" lon="4.3624193408"><ele>157.31</ele><time>2015-09-27T12:59:54Z</time></trkpt><trkpt lat="44.0689811949" lon="4.3624464981"><ele>157.31</ele><time>2015-09-27T13:00:25Z</time></trkpt><trkpt lat="44.0689904150" lon="4.3624371942"><ele>157.31</ele><time>2015-09-27T13:00:51Z</time></trkpt><trkpt lat="44.0690035746" lon="4.3624288123"><ele>157.79</ele><time>2015-09-27T13:01:20Z</time></trkpt><trkpt lat="44.0690842085" lon="4.3624035828"><ele>157.79</ele><time>2015-09-27T13:01:34Z</time></trkpt><trkpt lat="44.0692189895" lon="4.3623914290"><ele>158.27</ele><time>2015-09-27T13:01:52Z</time></trkpt><trkpt lat="44.0693745576" lon="4.3623931054"><ele>159.24</ele><time>2015-09-27T13:02:10Z</time></trkpt><trkpt lat="44.0695288684" lon="4.3624084443"><ele>160.20</ele><time>2015-09-27T13:02:27Z</time></trkpt><trkpt lat="44.0697359014" lon="4.3624133896"><ele>160.20</ele><time>2015-09-27T13:02:45Z</time></trkpt><trkpt lat="44.0698930621" lon="4.3623845559"><ele>160.20</ele><time>2015-09-27T13:03:02Z</time></trkpt><trkpt lat="44.0699241590" lon="4.3623815384"><ele>160.20</ele><time>2015-09-27T13:03:05Z</time></trkpt><trkpt lat="44.0701347962" lon="4.3623611704"><ele>160.68</ele><time>2015-09-27T13:03:25Z</time></trkpt><trkpt lat="44.0703168511" lon="4.3623639364"><ele>160.68</ele><time>2015-09-27T13:03:43Z</time></trkpt><trkpt lat="44.0704150870" lon="4.3623422273"><ele>160.68</ele><time>2015-09-27T13:03:55Z</time></trkpt><trkpt lat="44.0706001595" lon="4.3623056822"><ele>160.68</ele><time>2015-09-27T13:04:14Z</time></trkpt><trkpt lat="44.0707568172" lon="4.3623344321"><ele>161.16</ele><time>2015-09-27T13:04:30Z</time></trkpt><trkpt lat="44.0709146485" lon="4.3624190893"><ele>161.64</ele><time>2015-09-27T13:04:47Z</time></trkpt><trkpt lat="44.0710775927" lon="4.3624891620"><ele>162.12</ele><time>2015-09-27T13:05:03Z</time></trkpt><trkpt lat="44.0710884053" lon="4.3624856416"><ele>162.12</ele><time>2015-09-27T13:05:04Z</time></trkpt><trkpt lat="44.0712806862" lon="4.3623638526"><ele>162.60</ele><time>2015-09-27T13:05:24Z</time></trkpt><trkpt lat="44.0714621544" lon="4.3623098731"><ele>162.60</ele><time>2015-09-27T13:05:43Z</time></trkpt><trkpt lat="44.0715144575" lon="4.3623189256"><ele>162.60</ele><time>2015-09-27T13:05:48Z</time></trkpt><trkpt lat="44.0716821793" lon="4.3624456599"><ele>162.60</ele><time>2015-09-27T13:06:06Z</time></trkpt><trkpt lat="44.0718133561" lon="4.3626283016"><ele>163.56</ele><time>2015-09-27T13:06:23Z</time></trkpt><trkpt lat="44.0719281882" lon="4.3628571276"><ele>164.04</ele><time>2015-09-27T13:06:43Z</time></trkpt><trkpt lat="44.0719930641" lon="4.3630718719"><ele>164.52</ele><time>2015-09-27T13:06:59Z</time></trkpt><trkpt lat="44.0720726084" lon="4.3633204792"><ele>165.00</ele><time>2015-09-27T13:07:19Z</time></trkpt><trkpt lat="44.0721042082" lon="4.3635284342"><ele>165.96</ele><time>2015-09-27T13:07:35Z</time></trkpt><trkpt lat="44.0721161105" lon="4.3637050409"><ele>167.89</ele><time>2015-09-27T13:07:50Z</time></trkpt><trkpt lat="44.0721859317" lon="4.3639445119"><ele>168.37</ele><time>2015-09-27T13:08:07Z</time></trkpt><trkpt lat="44.0722330380" lon="4.3641843181"><ele>169.81</ele><time>2015-09-27T13:08:26Z</time></trkpt><trkpt lat="44.0722749475" lon="4.3644236214"><ele>169.81</ele><time>2015-09-27T13:08:42Z</time></trkpt><trkpt lat="44.0723245684" lon="4.3646407127"><ele>170.29</ele><time>2015-09-27T13:08:58Z</time></trkpt><trkpt lat="44.0722401626" lon="4.3649296369"><ele>170.77</ele><time>2015-09-27T13:09:17Z</time></trkpt><trkpt lat="44.0722244885" lon="4.3650969397"><ele>171.25</ele><time>2015-09-27T13:09:32Z</time></trkpt><trkpt lat="44.0722230636" lon="4.3650992867"><ele>171.25</ele><time>2015-09-27T13:09:33Z</time></trkpt><trkpt lat="44.0722179506" lon="4.3653173838"><ele>172.21</ele><time>2015-09-27T13:09:48Z</time></trkpt><trkpt lat="44.0722228959" lon="4.3653905578"><ele>172.21</ele><time>2015-09-27T13:09:52Z</time></trkpt><trkpt lat="44.0722223930" lon="4.3656564318"><ele>173.17</ele><time>2015-09-27T13:10:09Z</time></trkpt><trkpt lat="44.0722508915" lon="4.3658691645"><ele>173.17</ele><time>2015-09-27T13:10:25Z</time></trkpt><trkpt lat="44.0723065473" lon="4.3660653010"><ele>174.62</ele><time>2015-09-27T13:10:40Z</time></trkpt><trkpt lat="44.0723349620" lon="4.3662212044"><ele>175.58</ele><time>2015-09-27T13:10:50Z</time></trkpt><trkpt lat="44.0723353811" lon="4.3662512116"><ele>175.58</ele><time>2015-09-27T13:10:52Z</time></trkpt><trkpt lat="44.0723512229" lon="4.3663167581"><ele>176.06</ele><time>2015-09-27T13:10:56Z</time></trkpt><trkpt lat="44.0724578407" lon="4.3665910978"><ele>177.02</ele><time>2015-09-27T13:11:16Z</time></trkpt><trkpt lat="44.0725532267" lon="4.3668335862"><ele>177.50</ele><time>2015-09-27T13:11:34Z</time></trkpt><trkpt lat="44.0726501215" lon="4.3671169784"><ele>177.98</ele><time>2015-09-27T13:11:54Z</time></trkpt><trkpt lat="44.0727811307" lon="4.3673456367"><ele>178.46</ele><time>2015-09-27T13:12:13Z</time></trkpt><trkpt lat="44.0728717390" lon="4.3675427791"><ele>178.94</ele><time>2015-09-27T13:12:29Z</time></trkpt><trkpt lat="44.0729736630" lon="4.3677467946"><ele>179.90</ele><time>2015-09-27T13:12:47Z</time></trkpt><trkpt lat="44.0730506089" lon="4.3679629639"><ele>181.35</ele><time>2015-09-27T13:13:05Z</time></trkpt><trkpt lat="44.0731088631" lon="4.3682156783"><ele>181.83</ele><time>2015-09-27T13:13:23Z</time></trkpt><trkpt lat="44.0731760859" lon="4.3684391398"><ele>181.83</ele><time>2015-09-27T13:13:40Z</time></trkpt><trkpt lat="44.0732564684" lon="4.3686936982"><ele>182.79</ele><time>2015-09-27T13:13:59Z</time></trkpt><trkpt lat="44.0733234398" lon="4.3688993901"><ele>183.75</ele><time>2015-09-27T13:14:15Z</time></trkpt><trkpt lat="44.0733826999" lon="4.3691197503"><ele>184.71</ele><time>2015-09-27T13:14:32Z</time></trkpt><trkpt lat="44.0734560415" lon="4.3693102710"><ele>186.15</ele><time>2015-09-27T13:14:48Z</time></trkpt><trkpt lat="44.0735291317" lon="4.3695019651"><ele>187.59</ele><time>2015-09-27T13:15:03Z</time></trkpt><trkpt lat="44.0735915769" lon="4.3697322998"><ele>187.59</ele><time>2015-09-27T13:15:19Z</time></trkpt><trkpt lat="44.0736958478" lon="4.3699709326"><ele>187.59</ele><time>2015-09-27T13:15:38Z</time></trkpt><trkpt lat="44.0738024656" lon="4.3701876048"><ele>188.56</ele><time>2015-09-27T13:15:56Z</time></trkpt><trkpt lat="44.0739331394" lon="4.3704632856"><ele>189.04</ele><time>2015-09-27T13:16:17Z</time></trkpt><trkpt lat="44.0740849357" lon="4.3706506211"><ele>189.04</ele><time>2015-09-27T13:16:36Z</time></trkpt><trkpt lat="44.0742418449" lon="4.3708817102"><ele>189.04</ele><time>2015-09-27T13:16:56Z</time></trkpt><trkpt lat="44.0743798949" lon="4.3711019028"><ele>190.00</ele><time>2015-09-27T13:17:15Z</time></trkpt><trkpt lat="44.0745310206" lon="4.3713350035"><ele>190.48</ele><time>2015-09-27T13:17:35Z</time></trkpt><trkpt lat="44.0746844094" lon="4.3715990335"><ele>190.48</ele><time>2015-09-27T13:17:57Z</time></trkpt><trkpt lat="44.0748129878" lon="4.3718139455"><ele>189.52</ele><time>2015-09-27T13:18:17Z</time></trkpt><trkpt lat="44.0749808773" lon="4.3719760515"><ele>189.04</ele><time>2015-09-27T13:18:35Z</time></trkpt><trkpt lat="44.0751947835" lon="4.3719829246"><ele>188.56</ele><time>2015-09-27T13:18:54Z</time></trkpt><trkpt lat="44.0753562190" lon="4.3721642252"><ele>189.04</ele><time>2015-09-27T13:19:14Z</time></trkpt><trkpt lat="44.0754338354" lon="4.3722833320"><ele>190.00</ele><time>2015-09-27T13:19:24Z</time></trkpt><trkpt lat="44.0756060835" lon="4.3724879343"><ele>190.48</ele><time>2015-09-27T13:19:44Z</time></trkpt><trkpt lat="44.0757714584" lon="4.3726777844"><ele>190.48</ele><time>2015-09-27T13:20:03Z</time></trkpt><trkpt lat="44.0759518370" lon="4.3728684727"><ele>190.48</ele><time>2015-09-27T13:20:25Z</time></trkpt><trkpt lat="44.0761799924" lon="4.3730403017"><ele>188.08</ele><time>2015-09-27T13:20:48Z</time></trkpt><trkpt lat="44.0763707645" lon="4.3731445726"><ele>187.59</ele><time>2015-09-27T13:21:07Z</time></trkpt><trkpt lat="44.0763799008" lon="4.3731440697"><ele>187.59</ele><time>2015-09-27T13:21:08Z</time></trkpt><trkpt lat="44.0765658114" lon="4.3731102906"><ele>185.67</ele><time>2015-09-27T13:21:27Z</time></trkpt><trkpt lat="44.0766679030" lon="4.3730883300"><ele>184.23</ele><time>2015-09-27T13:21:41Z</time></trkpt><trkpt lat="44.0768895205" lon="4.3729975540"><ele>182.31</ele><time>2015-09-27T13:22:00Z</time></trkpt><trkpt lat="44.0771723259" lon="4.3729664572"><ele>179.90</ele><time>2015-09-27T13:22:24Z</time></trkpt><trkpt lat="44.0774235316" lon="4.3728669640"><ele>178.46</ele><time>2015-09-27T13:22:48Z</time></trkpt><trkpt lat="44.0776964463" lon="4.3727657106"><ele>178.46</ele><time>2015-09-27T13:23:11Z</time></trkpt><trkpt lat="44.0778986178" lon="4.3725703284"><ele>176.54</ele><time>2015-09-27T13:23:33Z</time></trkpt><trkpt lat="44.0781028010" lon="4.3723891117"><ele>175.10</ele><time>2015-09-27T13:23:56Z</time></trkpt><trkpt lat="44.0783026256" lon="4.3723026942"><ele>174.14</ele><time>2015-09-27T13:24:15Z</time></trkpt><trkpt lat="44.0785504784" lon="4.3721800670"><ele>173.66</ele><time>2015-09-27T13:24:37Z</time></trkpt><trkpt lat="44.0787614509" lon="4.3721049652"><ele>173.66</ele><time>2015-09-27T13:24:57Z</time></trkpt><trkpt lat="44.0788132511" lon="4.3721285183"><ele>175.10</ele><time>2015-09-27T13:25:02Z</time></trkpt><trkpt lat="44.0791146643" lon="4.3721955735"><ele>175.10</ele><time>2015-09-27T13:25:28Z</time></trkpt><trkpt lat="44.0793614276" lon="4.3722429313"><ele>175.10</ele><time>2015-09-27T13:25:51Z</time></trkpt><trkpt lat="44.0794251300" lon="4.3721723557"><ele>174.14</ele><time>2015-09-27T13:26:04Z</time></trkpt><trkpt lat="44.0794716496" lon="4.3721480481"><ele>174.14</ele><time>2015-09-27T13:26:08Z</time></trkpt><trkpt lat="44.0795836318" lon="4.3719770573"><ele>174.14</ele><time>2015-09-27T13:26:26Z</time></trkpt><trkpt lat="44.0796513576" lon="4.3716971856"><ele>175.10</ele><time>2015-09-27T13:26:45Z</time></trkpt><trkpt lat="44.0797360148" lon="4.3715346605"><ele>176.06</ele><time>2015-09-27T13:27:02Z</time></trkpt><trkpt lat="44.0798039082" lon="4.3714566249"><ele>176.06</ele><time>2015-09-27T13:27:18Z</time></trkpt><trkpt lat="44.0797842108" lon="4.3715582136"><ele>176.06</ele><time>2015-09-27T13:27:29Z</time></trkpt><trkpt lat="44.0797739010" lon="4.3716045655"><ele>176.54</ele><time>2015-09-27T13:27:44Z</time></trkpt><trkpt lat="44.0797611605" lon="4.3715938367"><ele>176.54</ele><time>2015-09-27T13:28:14Z</time></trkpt><trkpt lat="44.0797883179" lon="4.3716286216"><ele>177.02</ele><time>2015-09-27T13:28:49Z</time></trkpt><trkpt lat="44.0797842946" lon="4.3716224190"><ele>177.02</ele><time>2015-09-27T13:29:11Z</time></trkpt><trkpt lat="44.0797853004" lon="4.3716482352"><ele>177.02</ele><time>2015-09-27T13:29:31Z</time></trkpt><trkpt lat="44.0797674470" lon="4.3717489857"><ele>177.02</ele><time>2015-09-27T13:29:44Z</time></trkpt><trkpt lat="44.0797796845" lon="4.3718042225"><ele>177.02</ele><time>2015-09-27T13:29:52Z</time></trkpt><trkpt lat="44.0797297284" lon="4.3716236763"><ele>177.02</ele><time>2015-09-27T13:33:28Z</time></trkpt><trkpt lat="44.0798064228" lon="4.3716669269"><ele>177.02</ele><time>2015-09-27T13:33:45Z</time></trkpt><trkpt lat="44.0797931794" lon="4.3716622330"><ele>177.02</ele><time>2015-09-27T13:34:23Z</time></trkpt><trkpt lat="44.0798102785" lon="4.3716794159"><ele>177.02</ele><time>2015-09-27T13:34:51Z</time></trkpt><trkpt lat="44.0798334125" lon="4.3716769852"><ele>177.02</ele><time>2015-09-27T13:35:24Z</time></trkpt><trkpt lat="44.0798107814" lon="4.3716360815"><ele>177.02</ele><time>2015-09-27T13:35:38Z</time></trkpt><trkpt lat="44.0797983762" lon="4.3716482352"><ele>177.02</ele><time>2015-09-27T13:36:18Z</time></trkpt><trkpt lat="44.0798055846" lon="4.3716441281"><ele>177.02</ele><time>2015-09-27T13:36:41Z</time></trkpt><trkpt lat="44.0797966160" lon="4.3716675136"><ele>177.02</ele><time>2015-09-27T13:36:59Z</time></trkpt><trkpt lat="44.0798208397" lon="4.3717711139"><ele>177.50</ele><time>2015-09-27T13:37:14Z</time></trkpt><trkpt lat="44.0798513498" lon="4.3719851039"><ele>178.94</ele><time>2015-09-27T13:37:31Z</time></trkpt><trkpt lat="44.0798868891" lon="4.3720612116"><ele>179.42</ele><time>2015-09-27T13:37:38Z</time></trkpt><trkpt lat="44.0800026432" lon="4.3722834159"><ele>180.38</ele><time>2015-09-27T13:37:57Z</time></trkpt><trkpt lat="44.0800763201" lon="4.3725205399"><ele>180.87</ele><time>2015-09-27T13:38:17Z</time></trkpt><trkpt lat="44.0801341552" lon="4.3727654591"><ele>180.87</ele><time>2015-09-27T13:38:35Z</time></trkpt><trkpt lat="44.0801530145" lon="4.3730174191"><ele>177.98</ele><time>2015-09-27T13:38:57Z</time></trkpt><trkpt lat="44.0800671838" lon="4.3731048424"><ele>176.54</ele><time>2015-09-27T13:39:14Z</time></trkpt><trkpt lat="44.0799875557" lon="4.3729485199"><ele>174.62</ele><time>2015-09-27T13:39:31Z</time></trkpt><trkpt lat="44.0798893198" lon="4.3728155829"><ele>174.62</ele><time>2015-09-27T13:39:49Z</time></trkpt><trkpt lat="44.0799112804" lon="4.3728788663"><ele>174.14</ele><time>2015-09-27T13:40:05Z</time></trkpt><trkpt lat="44.0798987076" lon="4.3727894314"><ele>174.14</ele><time>2015-09-27T13:40:21Z</time></trkpt><trkpt lat="44.0798718855" lon="4.3728030100"><ele>174.14</ele><time>2015-09-27T13:40:38Z</time></trkpt><trkpt lat="44.0798671078" lon="4.3727947120"><ele>174.14</ele><time>2015-09-27T13:41:02Z</time></trkpt><trkpt lat="44.0798697062" lon="4.3727976456"><ele>174.14</ele><time>2015-09-27T13:41:29Z</time></trkpt><trkpt lat="44.0798943490" lon="4.3728121463"><ele>173.66</ele><time>2015-09-27T13:41:58Z</time></trkpt><trkpt lat="44.0798601508" lon="4.3728078716"><ele>173.66</ele><time>2015-09-27T13:42:25Z</time></trkpt><trkpt lat="44.0798662696" lon="4.3727679737"><ele>173.66</ele><time>2015-09-27T13:42:56Z</time></trkpt><trkpt lat="44.0798790101" lon="4.3727717455"><ele>173.66</ele><time>2015-09-27T13:43:16Z</time></trkpt></trkseg></trk></gpx>